<?xml version="1.0" encoding="UTF-8" standalone="no" ?>
<gpx xmlns="http://www.topografix.com/GPX/1/1" xmlns:xsi="http://www.w3.org/2001/XMLSchema-instance" xsi:schemaLocation="http://www.topografix.com/GPX/1/1 http://www.topografix.com/GPX/1/1/gpx.xsd" version="1.1" creator="VisuGPX - https://www.visugpx.com">
  <metadata>
    <name>ASLPM marche La Ronde du 16 février 2015</name>
    <desc><![CDATA[ASLPM marche La Ronde du 16 Février 2015
]]></desc>
  </metadata>
  <trk>
    <name><![CDATA[Marche à La Ronde]]></name>
    <trkseg>
      <trkpt lat="46.31039" lon="-0.79875">
        <ele>3.4000000953674</ele>
        <time>2015-02-16T08:14:12.000Z</time>
      </trkpt>
      <trkpt lat="46.31039" lon="-0.79876">
        <ele>3.4000000953674</ele>
        <time>2015-02-16T08:14:13.000Z</time>
      </trkpt>
      <trkpt lat="46.31041" lon="-0.7988">
        <ele>3.4000000953674</ele>
        <time>2015-02-16T08:14:18.000Z</time>
      </trkpt>
      <trkpt lat="46.31044" lon="-0.79883">
        <ele>3.2000000476837</ele>
        <time>2015-02-16T08:14:25.000Z</time>
      </trkpt>
      <trkpt lat="46.3105" lon="-0.79874">
        <ele>3.4000000953674</ele>
        <time>2015-02-16T08:14:30.000Z</time>
      </trkpt>
      <trkpt lat="46.31058" lon="-0.79863">
        <ele>3.4000000953674</ele>
        <time>2015-02-16T08:14:37.000Z</time>
      </trkpt>
      <trkpt lat="46.3107" lon="-0.79849">
        <ele>3.4000000953674</ele>
        <time>2015-02-16T08:14:47.000Z</time>
      </trkpt>
      <trkpt lat="46.31081" lon="-0.79835">
        <ele>3.5999999046326</ele>
        <time>2015-02-16T08:14:58.000Z</time>
      </trkpt>
      <trkpt lat="46.31088" lon="-0.79828">
        <ele>3.7999999523163</ele>
        <time>2015-02-16T08:15:04.000Z</time>
      </trkpt>
      <trkpt lat="46.31096" lon="-0.79831">
        <ele>3.5999999046326</ele>
        <time>2015-02-16T08:15:13.000Z</time>
      </trkpt>
      <trkpt lat="46.31105" lon="-0.79839">
        <ele>3.5999999046326</ele>
        <time>2015-02-16T08:15:22.000Z</time>
      </trkpt>
      <trkpt lat="46.31118" lon="-0.79843">
        <ele>3.5999999046326</ele>
        <time>2015-02-16T08:15:32.000Z</time>
      </trkpt>
      <trkpt lat="46.3113" lon="-0.79846">
        <ele>3.5999999046326</ele>
        <time>2015-02-16T08:15:43.000Z</time>
      </trkpt>
      <trkpt lat="46.3114" lon="-0.79848">
        <ele>3.4000000953674</ele>
        <time>2015-02-16T08:15:51.000Z</time>
      </trkpt>
      <trkpt lat="46.31148" lon="-0.79852">
        <ele>3.4000000953674</ele>
        <time>2015-02-16T08:15:58.000Z</time>
      </trkpt>
      <trkpt lat="46.31158" lon="-0.79856">
        <ele>3.2000000476837</ele>
        <time>2015-02-16T08:16:07.000Z</time>
      </trkpt>
      <trkpt lat="46.31168" lon="-0.79862">
        <ele>3</ele>
        <time>2015-02-16T08:16:15.000Z</time>
      </trkpt>
      <trkpt lat="46.31176" lon="-0.79867">
        <ele>3</ele>
        <time>2015-02-16T08:16:21.000Z</time>
      </trkpt>
      <trkpt lat="46.31187" lon="-0.79873">
        <ele>3</ele>
        <time>2015-02-16T08:16:31.000Z</time>
      </trkpt>
      <trkpt lat="46.31196" lon="-0.79879">
        <ele>3</ele>
        <time>2015-02-16T08:16:38.000Z</time>
      </trkpt>
      <trkpt lat="46.312" lon="-0.79882">
        <ele>3</ele>
        <time>2015-02-16T08:16:42.000Z</time>
      </trkpt>
      <trkpt lat="46.31212" lon="-0.7989">
        <ele>3</ele>
        <time>2015-02-16T08:16:52.000Z</time>
      </trkpt>
      <trkpt lat="46.31222" lon="-0.799">
        <ele>2.7999999523163</ele>
        <time>2015-02-16T08:17:01.000Z</time>
      </trkpt>
      <trkpt lat="46.31232" lon="-0.79909">
        <ele>2.7999999523163</ele>
        <time>2015-02-16T08:17:10.000Z</time>
      </trkpt>
      <trkpt lat="46.31243" lon="-0.79919">
        <ele>2.4000000953674</ele>
        <time>2015-02-16T08:17:20.000Z</time>
      </trkpt>
      <trkpt lat="46.31252" lon="-0.79929">
        <ele>2.2000000476837</ele>
        <time>2015-02-16T08:17:29.000Z</time>
      </trkpt>
      <trkpt lat="46.31262" lon="-0.79939">
        <ele>2</ele>
        <time>2015-02-16T08:17:38.000Z</time>
      </trkpt>
      <trkpt lat="46.31272" lon="-0.79948">
        <ele>2</ele>
        <time>2015-02-16T08:17:47.000Z</time>
      </trkpt>
      <trkpt lat="46.31282" lon="-0.79957">
        <ele>2</ele>
        <time>2015-02-16T08:17:57.000Z</time>
      </trkpt>
      <trkpt lat="46.31293" lon="-0.79964">
        <ele>2</ele>
        <time>2015-02-16T08:18:06.000Z</time>
      </trkpt>
      <trkpt lat="46.31303" lon="-0.79972">
        <ele>2</ele>
        <time>2015-02-16T08:18:15.000Z</time>
      </trkpt>
      <trkpt lat="46.31313" lon="-0.79982">
        <ele>2</ele>
        <time>2015-02-16T08:18:24.000Z</time>
      </trkpt>
      <trkpt lat="46.31326" lon="-0.79994">
        <ele>2.4000000953674</ele>
        <time>2015-02-16T08:18:36.000Z</time>
      </trkpt>
      <trkpt lat="46.31338" lon="-0.80008">
        <ele>2.5999999046326</ele>
        <time>2015-02-16T08:18:47.000Z</time>
      </trkpt>
      <trkpt lat="46.31347" lon="-0.80021">
        <ele>2.7999999523163</ele>
        <time>2015-02-16T08:18:56.000Z</time>
      </trkpt>
      <trkpt lat="46.31355" lon="-0.80037">
        <ele>3</ele>
        <time>2015-02-16T08:19:06.000Z</time>
      </trkpt>
      <trkpt lat="46.31363" lon="-0.80056">
        <ele>3.2000000476837</ele>
        <time>2015-02-16T08:19:17.000Z</time>
      </trkpt>
      <trkpt lat="46.31371" lon="-0.80079">
        <ele>3.4000000953674</ele>
        <time>2015-02-16T08:19:30.000Z</time>
      </trkpt>
      <trkpt lat="46.31377" lon="-0.80102">
        <ele>3.5999999046326</ele>
        <time>2015-02-16T08:19:42.000Z</time>
      </trkpt>
      <trkpt lat="46.31382" lon="-0.80114">
        <ele>3.5999999046326</ele>
        <time>2015-02-16T08:19:49.000Z</time>
      </trkpt>
      <trkpt lat="46.31387" lon="-0.80134">
        <ele>3.7999999523163</ele>
        <time>2015-02-16T08:20:00.000Z</time>
      </trkpt>
      <trkpt lat="46.31392" lon="-0.80153">
        <ele>3.5999999046326</ele>
        <time>2015-02-16T08:20:10.000Z</time>
      </trkpt>
      <trkpt lat="46.31396" lon="-0.80176">
        <ele>3</ele>
        <time>2015-02-16T08:20:22.000Z</time>
      </trkpt>
      <trkpt lat="46.314" lon="-0.80192">
        <ele>2.7999999523163</ele>
        <time>2015-02-16T08:20:30.000Z</time>
      </trkpt>
      <trkpt lat="46.31404" lon="-0.80214">
        <ele>2.2000000476837</ele>
        <time>2015-02-16T08:20:41.000Z</time>
      </trkpt>
      <trkpt lat="46.31408" lon="-0.80236">
        <ele>2</ele>
        <time>2015-02-16T08:20:52.000Z</time>
      </trkpt>
      <trkpt lat="46.31411" lon="-0.80255">
        <ele>1.7999999523163</ele>
        <time>2015-02-16T08:21:02.000Z</time>
      </trkpt>
      <trkpt lat="46.31413" lon="-0.80268">
        <ele>1.6000000238419</ele>
        <time>2015-02-16T08:21:09.000Z</time>
      </trkpt>
      <trkpt lat="46.31417" lon="-0.80287">
        <ele>1.3999999761581</ele>
        <time>2015-02-16T08:21:19.000Z</time>
      </trkpt>
      <trkpt lat="46.31422" lon="-0.80307">
        <ele>1</ele>
        <time>2015-02-16T08:21:29.000Z</time>
      </trkpt>
      <trkpt lat="46.3143" lon="-0.80322">
        <ele>1.2000000476837</ele>
        <time>2015-02-16T08:21:39.000Z</time>
      </trkpt>
      <trkpt lat="46.31438" lon="-0.80331">
        <ele>1.3999999761581</ele>
        <time>2015-02-16T08:21:46.000Z</time>
      </trkpt>
      <trkpt lat="46.31449" lon="-0.80334">
        <ele>1.3999999761581</ele>
        <time>2015-02-16T08:21:55.000Z</time>
      </trkpt>
      <trkpt lat="46.31464" lon="-0.80335">
        <ele>1.3999999761581</ele>
        <time>2015-02-16T08:22:05.000Z</time>
      </trkpt>
      <trkpt lat="46.31478" lon="-0.80336">
        <ele>1.3999999761581</ele>
        <time>2015-02-16T08:22:15.000Z</time>
      </trkpt>
      <trkpt lat="46.31491" lon="-0.80336">
        <ele>1.6000000238419</ele>
        <time>2015-02-16T08:22:24.000Z</time>
      </trkpt>
      <trkpt lat="46.31504" lon="-0.80338">
        <ele>1.6000000238419</ele>
        <time>2015-02-16T08:22:34.000Z</time>
      </trkpt>
      <trkpt lat="46.31523" lon="-0.80341">
        <ele>2</ele>
        <time>2015-02-16T08:22:47.000Z</time>
      </trkpt>
      <trkpt lat="46.31535" lon="-0.80344">
        <ele>2</ele>
        <time>2015-02-16T08:22:56.000Z</time>
      </trkpt>
      <trkpt lat="46.31546" lon="-0.80346">
        <ele>2</ele>
        <time>2015-02-16T08:23:04.000Z</time>
      </trkpt>
      <trkpt lat="46.3156" lon="-0.80349">
        <ele>2</ele>
        <time>2015-02-16T08:23:14.000Z</time>
      </trkpt>
      <trkpt lat="46.31572" lon="-0.80352">
        <ele>2.2000000476837</ele>
        <time>2015-02-16T08:23:23.000Z</time>
      </trkpt>
      <trkpt lat="46.31586" lon="-0.80356">
        <ele>2.2000000476837</ele>
        <time>2015-02-16T08:23:33.000Z</time>
      </trkpt>
      <trkpt lat="46.316" lon="-0.8036">
        <ele>2.4000000953674</ele>
        <time>2015-02-16T08:23:43.000Z</time>
      </trkpt>
      <trkpt lat="46.31615" lon="-0.80364">
        <ele>2.5999999046326</ele>
        <time>2015-02-16T08:23:54.000Z</time>
      </trkpt>
      <trkpt lat="46.31625" lon="-0.80366">
        <ele>2.7999999523163</ele>
        <time>2015-02-16T08:24:01.000Z</time>
      </trkpt>
      <trkpt lat="46.3164" lon="-0.80369">
        <ele>3</ele>
        <time>2015-02-16T08:24:12.000Z</time>
      </trkpt>
      <trkpt lat="46.31649" lon="-0.80373">
        <ele>3</ele>
        <time>2015-02-16T08:24:19.000Z</time>
      </trkpt>
      <trkpt lat="46.31665" lon="-0.80379">
        <ele>3</ele>
        <time>2015-02-16T08:24:31.000Z</time>
      </trkpt>
      <trkpt lat="46.31678" lon="-0.80386">
        <ele>2.5999999046326</ele>
        <time>2015-02-16T08:24:41.000Z</time>
      </trkpt>
      <trkpt lat="46.31692" lon="-0.80391">
        <ele>2.4000000953674</ele>
        <time>2015-02-16T08:24:52.000Z</time>
      </trkpt>
      <trkpt lat="46.31703" lon="-0.80394">
        <ele>2.4000000953674</ele>
        <time>2015-02-16T08:25:00.000Z</time>
      </trkpt>
      <trkpt lat="46.31714" lon="-0.80389">
        <ele>2.2000000476837</ele>
        <time>2015-02-16T08:25:08.000Z</time>
      </trkpt>
      <trkpt lat="46.31723" lon="-0.8038">
        <ele>2.2000000476837</ele>
        <time>2015-02-16T08:25:17.000Z</time>
      </trkpt>
      <trkpt lat="46.31733" lon="-0.8037">
        <ele>2.4000000953674</ele>
        <time>2015-02-16T08:25:26.000Z</time>
      </trkpt>
      <trkpt lat="46.31742" lon="-0.80361">
        <ele>2.5999999046326</ele>
        <time>2015-02-16T08:25:34.000Z</time>
      </trkpt>
      <trkpt lat="46.31756" lon="-0.8035">
        <ele>2.5999999046326</ele>
        <time>2015-02-16T08:25:45.000Z</time>
      </trkpt>
      <trkpt lat="46.3177" lon="-0.8034">
        <ele>2.5999999046326</ele>
        <time>2015-02-16T08:25:56.000Z</time>
      </trkpt>
      <trkpt lat="46.31779" lon="-0.80333">
        <ele>2.7999999523163</ele>
        <time>2015-02-16T08:26:03.000Z</time>
      </trkpt>
      <trkpt lat="46.31791" lon="-0.80325">
        <ele>2.7999999523163</ele>
        <time>2015-02-16T08:26:11.000Z</time>
      </trkpt>
      <trkpt lat="46.31802" lon="-0.80315">
        <ele>2.7999999523163</ele>
        <time>2015-02-16T08:26:20.000Z</time>
      </trkpt>
      <trkpt lat="46.31815" lon="-0.80307">
        <ele>3</ele>
        <time>2015-02-16T08:26:30.000Z</time>
      </trkpt>
      <trkpt lat="46.31829" lon="-0.80297">
        <ele>3</ele>
        <time>2015-02-16T08:26:41.000Z</time>
      </trkpt>
      <trkpt lat="46.31842" lon="-0.8029">
        <ele>3</ele>
        <time>2015-02-16T08:26:51.000Z</time>
      </trkpt>
      <trkpt lat="46.31856" lon="-0.80282">
        <ele>3</ele>
        <time>2015-02-16T08:27:02.000Z</time>
      </trkpt>
      <trkpt lat="46.31869" lon="-0.80277">
        <ele>3</ele>
        <time>2015-02-16T08:27:12.000Z</time>
      </trkpt>
      <trkpt lat="46.31879" lon="-0.80271">
        <ele>3</ele>
        <time>2015-02-16T08:27:20.000Z</time>
      </trkpt>
      <trkpt lat="46.31892" lon="-0.80265">
        <ele>3</ele>
        <time>2015-02-16T08:27:30.000Z</time>
      </trkpt>
      <trkpt lat="46.31903" lon="-0.80261">
        <ele>3</ele>
        <time>2015-02-16T08:27:38.000Z</time>
      </trkpt>
      <trkpt lat="46.31912" lon="-0.80256">
        <ele>2.7999999523163</ele>
        <time>2015-02-16T08:27:45.000Z</time>
      </trkpt>
      <trkpt lat="46.31923" lon="-0.80247">
        <ele>2.7999999523163</ele>
        <time>2015-02-16T08:27:54.000Z</time>
      </trkpt>
      <trkpt lat="46.3193" lon="-0.80237">
        <ele>2.7999999523163</ele>
        <time>2015-02-16T08:28:01.000Z</time>
      </trkpt>
      <trkpt lat="46.31936" lon="-0.80222">
        <ele>3</ele>
        <time>2015-02-16T08:28:10.000Z</time>
      </trkpt>
      <trkpt lat="46.31944" lon="-0.80205">
        <ele>3</ele>
        <time>2015-02-16T08:28:20.000Z</time>
      </trkpt>
      <trkpt lat="46.31954" lon="-0.80188">
        <ele>3</ele>
        <time>2015-02-16T08:28:31.000Z</time>
      </trkpt>
      <trkpt lat="46.31961" lon="-0.80176">
        <ele>3</ele>
        <time>2015-02-16T08:28:39.000Z</time>
      </trkpt>
      <trkpt lat="46.31968" lon="-0.80162">
        <ele>3</ele>
        <time>2015-02-16T08:28:48.000Z</time>
      </trkpt>
      <trkpt lat="46.31975" lon="-0.80146">
        <ele>3</ele>
        <time>2015-02-16T08:28:58.000Z</time>
      </trkpt>
      <trkpt lat="46.31983" lon="-0.80132">
        <ele>3</ele>
        <time>2015-02-16T08:29:07.000Z</time>
      </trkpt>
      <trkpt lat="46.31989" lon="-0.8012">
        <ele>3</ele>
        <time>2015-02-16T08:29:15.000Z</time>
      </trkpt>
      <trkpt lat="46.31996" lon="-0.80109">
        <ele>3</ele>
        <time>2015-02-16T08:29:23.000Z</time>
      </trkpt>
      <trkpt lat="46.32001" lon="-0.801">
        <ele>3</ele>
        <time>2015-02-16T08:29:29.000Z</time>
      </trkpt>
      <trkpt lat="46.32009" lon="-0.80087">
        <ele>3</ele>
        <time>2015-02-16T08:29:38.000Z</time>
      </trkpt>
      <trkpt lat="46.32018" lon="-0.80073">
        <ele>2.7999999523163</ele>
        <time>2015-02-16T08:29:48.000Z</time>
      </trkpt>
      <trkpt lat="46.32025" lon="-0.8006">
        <ele>2.7999999523163</ele>
        <time>2015-02-16T08:29:57.000Z</time>
      </trkpt>
      <trkpt lat="46.32026" lon="-0.80058">
        <ele>2.7999999523163</ele>
        <time>2015-02-16T08:29:58.000Z</time>
      </trkpt>
      <trkpt lat="46.32034" lon="-0.80044">
        <ele>2.7999999523163</ele>
        <time>2015-02-16T08:30:08.000Z</time>
      </trkpt>
      <trkpt lat="46.32041" lon="-0.80032">
        <ele>2.5999999046326</ele>
        <time>2015-02-16T08:30:16.000Z</time>
      </trkpt>
      <trkpt lat="46.32047" lon="-0.80022">
        <ele>2.4000000953674</ele>
        <time>2015-02-16T08:30:23.000Z</time>
      </trkpt>
      <trkpt lat="46.32055" lon="-0.80016">
        <ele>2.2000000476837</ele>
        <time>2015-02-16T08:30:30.000Z</time>
      </trkpt>
      <trkpt lat="46.32064" lon="-0.80017">
        <ele>2</ele>
        <time>2015-02-16T08:30:38.000Z</time>
      </trkpt>
      <trkpt lat="46.32072" lon="-0.8002">
        <ele>2</ele>
        <time>2015-02-16T08:30:44.000Z</time>
      </trkpt>
      <trkpt lat="46.32078" lon="-0.80025">
        <ele>1.7999999523163</ele>
        <time>2015-02-16T08:30:52.000Z</time>
      </trkpt>
      <trkpt lat="46.32087" lon="-0.8003">
        <ele>1.7999999523163</ele>
        <time>2015-02-16T08:30:59.000Z</time>
      </trkpt>
      <trkpt lat="46.32098" lon="-0.80036">
        <ele>1.7999999523163</ele>
        <time>2015-02-16T08:31:08.000Z</time>
      </trkpt>
      <trkpt lat="46.32108" lon="-0.80043">
        <ele>1.7999999523163</ele>
        <time>2015-02-16T08:31:16.000Z</time>
      </trkpt>
      <trkpt lat="46.32122" lon="-0.80052">
        <ele>2</ele>
        <time>2015-02-16T08:31:27.000Z</time>
      </trkpt>
      <trkpt lat="46.32133" lon="-0.80059">
        <ele>2</ele>
        <time>2015-02-16T08:31:36.000Z</time>
      </trkpt>
      <trkpt lat="46.32143" lon="-0.80067">
        <ele>2.2000000476837</ele>
        <time>2015-02-16T08:31:45.000Z</time>
      </trkpt>
      <trkpt lat="46.32156" lon="-0.80074">
        <ele>2.4000000953674</ele>
        <time>2015-02-16T08:31:54.000Z</time>
      </trkpt>
      <trkpt lat="46.32168" lon="-0.80078">
        <ele>2.5999999046326</ele>
        <time>2015-02-16T08:32:03.000Z</time>
      </trkpt>
      <trkpt lat="46.32182" lon="-0.80081">
        <ele>2.7999999523163</ele>
        <time>2015-02-16T08:32:13.000Z</time>
      </trkpt>
      <trkpt lat="46.32196" lon="-0.80083">
        <ele>3</ele>
        <time>2015-02-16T08:32:23.000Z</time>
      </trkpt>
      <trkpt lat="46.3221" lon="-0.80086">
        <ele>2.7999999523163</ele>
        <time>2015-02-16T08:32:33.000Z</time>
      </trkpt>
      <trkpt lat="46.32223" lon="-0.80089">
        <ele>2.5999999046326</ele>
        <time>2015-02-16T08:32:42.000Z</time>
      </trkpt>
      <trkpt lat="46.32239" lon="-0.80095">
        <ele>2.5999999046326</ele>
        <time>2015-02-16T08:32:54.000Z</time>
      </trkpt>
      <trkpt lat="46.32254" lon="-0.80098">
        <ele>2.4000000953674</ele>
        <time>2015-02-16T08:33:05.000Z</time>
      </trkpt>
      <trkpt lat="46.32267" lon="-0.801">
        <ele>2.4000000953674</ele>
        <time>2015-02-16T08:33:14.000Z</time>
      </trkpt>
      <trkpt lat="46.32281" lon="-0.80103">
        <ele>2.5999999046326</ele>
        <time>2015-02-16T08:33:24.000Z</time>
      </trkpt>
      <trkpt lat="46.32292" lon="-0.80105">
        <ele>2.7999999523163</ele>
        <time>2015-02-16T08:33:32.000Z</time>
      </trkpt>
      <trkpt lat="46.32303" lon="-0.80108">
        <ele>2.7999999523163</ele>
        <time>2015-02-16T08:33:40.000Z</time>
      </trkpt>
      <trkpt lat="46.32314" lon="-0.8011">
        <ele>3</ele>
        <time>2015-02-16T08:33:48.000Z</time>
      </trkpt>
      <trkpt lat="46.32328" lon="-0.80119">
        <ele>2.7999999523163</ele>
        <time>2015-02-16T08:33:59.000Z</time>
      </trkpt>
      <trkpt lat="46.32339" lon="-0.80126">
        <ele>2.7999999523163</ele>
        <time>2015-02-16T08:34:08.000Z</time>
      </trkpt>
      <trkpt lat="46.32353" lon="-0.80136">
        <ele>3</ele>
        <time>2015-02-16T08:34:19.000Z</time>
      </trkpt>
      <trkpt lat="46.32365" lon="-0.80143">
        <ele>3</ele>
        <time>2015-02-16T08:34:28.000Z</time>
      </trkpt>
      <trkpt lat="46.32373" lon="-0.80148">
        <ele>3</ele>
        <time>2015-02-16T08:34:35.000Z</time>
      </trkpt>
      <trkpt lat="46.32382" lon="-0.80156">
        <ele>3</ele>
        <time>2015-02-16T08:34:43.000Z</time>
      </trkpt>
      <trkpt lat="46.32394" lon="-0.80164">
        <ele>3.2000000476837</ele>
        <time>2015-02-16T08:34:52.000Z</time>
      </trkpt>
      <trkpt lat="46.32396" lon="-0.80166">
        <ele>3.4000000953674</ele>
        <time>2015-02-16T08:34:54.000Z</time>
      </trkpt>
      <trkpt lat="46.32408" lon="-0.80175">
        <ele>3.4000000953674</ele>
        <time>2015-02-16T08:35:04.000Z</time>
      </trkpt>
      <trkpt lat="46.32415" lon="-0.8018">
        <ele>3.5999999046326</ele>
        <time>2015-02-16T08:35:10.000Z</time>
      </trkpt>
      <trkpt lat="46.32423" lon="-0.80188">
        <ele>3.5999999046326</ele>
        <time>2015-02-16T08:35:17.000Z</time>
      </trkpt>
      <trkpt lat="46.32428" lon="-0.80201">
        <ele>3.5999999046326</ele>
        <time>2015-02-16T08:35:25.000Z</time>
      </trkpt>
      <trkpt lat="46.32434" lon="-0.8022">
        <ele>3.5999999046326</ele>
        <time>2015-02-16T08:35:35.000Z</time>
      </trkpt>
      <trkpt lat="46.3244" lon="-0.80238">
        <ele>3.2000000476837</ele>
        <time>2015-02-16T08:35:45.000Z</time>
      </trkpt>
      <trkpt lat="46.32444" lon="-0.8025">
        <ele>3</ele>
        <time>2015-02-16T08:35:52.000Z</time>
      </trkpt>
      <trkpt lat="46.3245" lon="-0.8026">
        <ele>3</ele>
        <time>2015-02-16T08:35:59.000Z</time>
      </trkpt>
      <trkpt lat="46.32455" lon="-0.80274">
        <ele>3.4000000953674</ele>
        <time>2015-02-16T08:36:07.000Z</time>
      </trkpt>
      <trkpt lat="46.32461" lon="-0.80289">
        <ele>3.5999999046326</ele>
        <time>2015-02-16T08:36:16.000Z</time>
      </trkpt>
      <trkpt lat="46.32467" lon="-0.80303">
        <ele>3.7999999523163</ele>
        <time>2015-02-16T08:36:24.000Z</time>
      </trkpt>
      <trkpt lat="46.32472" lon="-0.80317">
        <ele>3.7999999523163</ele>
        <time>2015-02-16T08:36:33.000Z</time>
      </trkpt>
      <trkpt lat="46.32474" lon="-0.80322">
        <ele>3.7999999523163</ele>
        <time>2015-02-16T08:36:40.000Z</time>
      </trkpt>
      <trkpt lat="46.32474" lon="-0.80324">
        <ele>3.7999999523163</ele>
        <time>2015-02-16T08:36:54.000Z</time>
      </trkpt>
      <trkpt lat="46.32477" lon="-0.80325">
        <ele>3.7999999523163</ele>
        <time>2015-02-16T08:36:59.000Z</time>
      </trkpt>
      <trkpt lat="46.32477" lon="-0.80326">
        <ele>3.7999999523163</ele>
        <time>2015-02-16T08:37:00.000Z</time>
      </trkpt>
      <trkpt lat="46.32478" lon="-0.80328">
        <ele>3.7999999523163</ele>
        <time>2015-02-16T08:37:06.000Z</time>
      </trkpt>
      <trkpt lat="46.32477" lon="-0.80323">
        <ele>3.7999999523163</ele>
        <time>2015-02-16T08:37:11.000Z</time>
      </trkpt>
      <trkpt lat="46.32476" lon="-0.80325">
        <ele>3.7999999523163</ele>
        <time>2015-02-16T08:37:24.000Z</time>
      </trkpt>
      <trkpt lat="46.32479" lon="-0.80331">
        <ele>3.5999999046326</ele>
        <time>2015-02-16T08:37:49.000Z</time>
      </trkpt>
      <trkpt lat="46.3248" lon="-0.80332">
        <ele>3.5999999046326</ele>
        <time>2015-02-16T08:37:55.000Z</time>
      </trkpt>
      <trkpt lat="46.32481" lon="-0.80336">
        <ele>3.5999999046326</ele>
        <time>2015-02-16T08:38:02.000Z</time>
      </trkpt>
      <trkpt lat="46.32481" lon="-0.8033">
        <ele>3.5999999046326</ele>
        <time>2015-02-16T08:38:13.000Z</time>
      </trkpt>
      <trkpt lat="46.32481" lon="-0.80329">
        <ele>3.7999999523163</ele>
        <time>2015-02-16T08:38:14.000Z</time>
      </trkpt>
      <trkpt lat="46.32479" lon="-0.80325">
        <ele>3.7999999523163</ele>
        <time>2015-02-16T08:38:17.000Z</time>
      </trkpt>
      <trkpt lat="46.32478" lon="-0.80323">
        <ele>3.7999999523163</ele>
        <time>2015-02-16T08:38:25.000Z</time>
      </trkpt>
      <trkpt lat="46.32478" lon="-0.80322">
        <ele>3.7999999523163</ele>
        <time>2015-02-16T08:38:31.000Z</time>
      </trkpt>
      <trkpt lat="46.32479" lon="-0.80322">
        <ele>3.7999999523163</ele>
        <time>2015-02-16T08:38:59.000Z</time>
      </trkpt>
      <trkpt lat="46.32478" lon="-0.80322">
        <ele>3.7999999523163</ele>
        <time>2015-02-16T08:39:04.000Z</time>
      </trkpt>
      <trkpt lat="46.32479" lon="-0.80326">
        <ele>3.7999999523163</ele>
        <time>2015-02-16T08:39:51.000Z</time>
      </trkpt>
      <trkpt lat="46.32481" lon="-0.8034">
        <ele>3.5999999046326</ele>
        <time>2015-02-16T08:40:00.000Z</time>
      </trkpt>
      <trkpt lat="46.32483" lon="-0.80356">
        <ele>3.4000000953674</ele>
        <time>2015-02-16T08:40:09.000Z</time>
      </trkpt>
      <trkpt lat="46.32484" lon="-0.80359">
        <ele>3.4000000953674</ele>
        <time>2015-02-16T08:40:11.000Z</time>
      </trkpt>
      <trkpt lat="46.32484" lon="-0.80368">
        <ele>3.2000000476837</ele>
        <time>2015-02-16T08:40:18.000Z</time>
      </trkpt>
      <trkpt lat="46.32483" lon="-0.80371">
        <ele>3.2000000476837</ele>
        <time>2015-02-16T08:41:00.000Z</time>
      </trkpt>
      <trkpt lat="46.32485" lon="-0.80371">
        <ele>3.2000000476837</ele>
        <time>2015-02-16T08:41:05.000Z</time>
      </trkpt>
      <trkpt lat="46.32486" lon="-0.80373">
        <ele>3.2000000476837</ele>
        <time>2015-02-16T08:41:13.000Z</time>
      </trkpt>
      <trkpt lat="46.32486" lon="-0.80376">
        <ele>3.2000000476837</ele>
        <time>2015-02-16T08:41:19.000Z</time>
      </trkpt>
      <trkpt lat="46.32486" lon="-0.80377">
        <ele>3.2000000476837</ele>
        <time>2015-02-16T08:41:25.000Z</time>
      </trkpt>
      <trkpt lat="46.32486" lon="-0.80383">
        <ele>3</ele>
        <time>2015-02-16T08:41:29.000Z</time>
      </trkpt>
      <trkpt lat="46.32486" lon="-0.80385">
        <ele>3</ele>
        <time>2015-02-16T08:41:31.000Z</time>
      </trkpt>
      <trkpt lat="46.32484" lon="-0.80404">
        <ele>2.7999999523163</ele>
        <time>2015-02-16T08:41:41.000Z</time>
      </trkpt>
      <trkpt lat="46.32484" lon="-0.80408">
        <ele>2.7999999523163</ele>
        <time>2015-02-16T08:41:43.000Z</time>
      </trkpt>
      <trkpt lat="46.32487" lon="-0.80427">
        <ele>2.5999999046326</ele>
        <time>2015-02-16T08:41:53.000Z</time>
      </trkpt>
      <trkpt lat="46.32488" lon="-0.8044">
        <ele>2.4000000953674</ele>
        <time>2015-02-16T08:42:00.000Z</time>
      </trkpt>
      <trkpt lat="46.3249" lon="-0.80445">
        <ele>2.4000000953674</ele>
        <time>2015-02-16T08:42:06.000Z</time>
      </trkpt>
      <trkpt lat="46.3249" lon="-0.8045">
        <ele>2.2000000476837</ele>
        <time>2015-02-16T08:42:11.000Z</time>
      </trkpt>
      <trkpt lat="46.32493" lon="-0.80459">
        <ele>2.2000000476837</ele>
        <time>2015-02-16T08:42:17.000Z</time>
      </trkpt>
      <trkpt lat="46.32498" lon="-0.80472">
        <ele>2.2000000476837</ele>
        <time>2015-02-16T08:42:25.000Z</time>
      </trkpt>
      <trkpt lat="46.32506" lon="-0.80488">
        <ele>2.5999999046326</ele>
        <time>2015-02-16T08:42:35.000Z</time>
      </trkpt>
      <trkpt lat="46.32508" lon="-0.80495">
        <ele>2.5999999046326</ele>
        <time>2015-02-16T08:42:39.000Z</time>
      </trkpt>
      <trkpt lat="46.32516" lon="-0.80507">
        <ele>2.7999999523163</ele>
        <time>2015-02-16T08:42:52.000Z</time>
      </trkpt>
      <trkpt lat="46.32519" lon="-0.8051">
        <ele>3</ele>
        <time>2015-02-16T08:42:57.000Z</time>
      </trkpt>
      <trkpt lat="46.3252" lon="-0.80513">
        <ele>3</ele>
        <time>2015-02-16T08:43:06.000Z</time>
      </trkpt>
      <trkpt lat="46.32523" lon="-0.80517">
        <ele>3</ele>
        <time>2015-02-16T08:43:12.000Z</time>
      </trkpt>
      <trkpt lat="46.32524" lon="-0.80519">
        <ele>3</ele>
        <time>2015-02-16T08:43:18.000Z</time>
      </trkpt>
      <trkpt lat="46.32529" lon="-0.80527">
        <ele>3</ele>
        <time>2015-02-16T08:43:25.000Z</time>
      </trkpt>
      <trkpt lat="46.32534" lon="-0.80537">
        <ele>3</ele>
        <time>2015-02-16T08:43:32.000Z</time>
      </trkpt>
      <trkpt lat="46.32542" lon="-0.80553">
        <ele>3</ele>
        <time>2015-02-16T08:43:43.000Z</time>
      </trkpt>
      <trkpt lat="46.32543" lon="-0.80554">
        <ele>3</ele>
        <time>2015-02-16T08:43:44.000Z</time>
      </trkpt>
      <trkpt lat="46.32551" lon="-0.80566">
        <ele>2.7999999523163</ele>
        <time>2015-02-16T08:43:53.000Z</time>
      </trkpt>
      <trkpt lat="46.32558" lon="-0.80578">
        <ele>2.7999999523163</ele>
        <time>2015-02-16T08:44:02.000Z</time>
      </trkpt>
      <trkpt lat="46.32564" lon="-0.80591">
        <ele>2.5999999046326</ele>
        <time>2015-02-16T08:44:10.000Z</time>
      </trkpt>
      <trkpt lat="46.32569" lon="-0.80606">
        <ele>2.4000000953674</ele>
        <time>2015-02-16T08:44:19.000Z</time>
      </trkpt>
      <trkpt lat="46.32572" lon="-0.80615">
        <ele>2.2000000476837</ele>
        <time>2015-02-16T08:44:24.000Z</time>
      </trkpt>
      <trkpt lat="46.32575" lon="-0.80626">
        <ele>2.2000000476837</ele>
        <time>2015-02-16T08:44:31.000Z</time>
      </trkpt>
      <trkpt lat="46.32576" lon="-0.80628">
        <ele>2.2000000476837</ele>
        <time>2015-02-16T08:44:32.000Z</time>
      </trkpt>
      <trkpt lat="46.32579" lon="-0.80643">
        <ele>1.7999999523163</ele>
        <time>2015-02-16T08:44:41.000Z</time>
      </trkpt>
      <trkpt lat="46.32583" lon="-0.80659">
        <ele>1.7999999523163</ele>
        <time>2015-02-16T08:44:50.000Z</time>
      </trkpt>
      <trkpt lat="46.32585" lon="-0.8067">
        <ele>1.7999999523163</ele>
        <time>2015-02-16T08:44:56.000Z</time>
      </trkpt>
      <trkpt lat="46.32588" lon="-0.80685">
        <ele>1.7999999523163</ele>
        <time>2015-02-16T08:45:04.000Z</time>
      </trkpt>
      <trkpt lat="46.32589" lon="-0.80695">
        <ele>1.6000000238419</ele>
        <time>2015-02-16T08:45:10.000Z</time>
      </trkpt>
      <trkpt lat="46.32591" lon="-0.80707">
        <ele>1.7999999523163</ele>
        <time>2015-02-16T08:45:17.000Z</time>
      </trkpt>
      <trkpt lat="46.32593" lon="-0.80718">
        <ele>2</ele>
        <time>2015-02-16T08:45:23.000Z</time>
      </trkpt>
      <trkpt lat="46.32594" lon="-0.80719">
        <ele>2</ele>
        <time>2015-02-16T08:45:24.000Z</time>
      </trkpt>
      <trkpt lat="46.32597" lon="-0.80733">
        <ele>2</ele>
        <time>2015-02-16T08:45:32.000Z</time>
      </trkpt>
      <trkpt lat="46.32601" lon="-0.80748">
        <ele>2</ele>
        <time>2015-02-16T08:45:40.000Z</time>
      </trkpt>
      <trkpt lat="46.32604" lon="-0.80762">
        <ele>2</ele>
        <time>2015-02-16T08:45:48.000Z</time>
      </trkpt>
      <trkpt lat="46.32608" lon="-0.80776">
        <ele>2</ele>
        <time>2015-02-16T08:45:55.000Z</time>
      </trkpt>
      <trkpt lat="46.32614" lon="-0.80796">
        <ele>2</ele>
        <time>2015-02-16T08:46:06.000Z</time>
      </trkpt>
      <trkpt lat="46.32618" lon="-0.80813">
        <ele>2</ele>
        <time>2015-02-16T08:46:15.000Z</time>
      </trkpt>
      <trkpt lat="46.32622" lon="-0.80832">
        <ele>2</ele>
        <time>2015-02-16T08:46:25.000Z</time>
      </trkpt>
      <trkpt lat="46.32626" lon="-0.80848">
        <ele>2</ele>
        <time>2015-02-16T08:46:34.000Z</time>
      </trkpt>
      <trkpt lat="46.3263" lon="-0.80865">
        <ele>2</ele>
        <time>2015-02-16T08:46:43.000Z</time>
      </trkpt>
      <trkpt lat="46.32634" lon="-0.80881">
        <ele>2</ele>
        <time>2015-02-16T08:46:52.000Z</time>
      </trkpt>
      <trkpt lat="46.32639" lon="-0.80899">
        <ele>2</ele>
        <time>2015-02-16T08:47:02.000Z</time>
      </trkpt>
      <trkpt lat="46.32644" lon="-0.80911">
        <ele>2</ele>
        <time>2015-02-16T08:47:09.000Z</time>
      </trkpt>
      <trkpt lat="46.3265" lon="-0.80923">
        <ele>2</ele>
        <time>2015-02-16T08:47:17.000Z</time>
      </trkpt>
      <trkpt lat="46.32661" lon="-0.80934">
        <ele>2</ele>
        <time>2015-02-16T08:47:27.000Z</time>
      </trkpt>
      <trkpt lat="46.32683" lon="-0.80937">
        <ele>2</ele>
        <time>2015-02-16T08:47:44.000Z</time>
      </trkpt>
      <trkpt lat="46.32695" lon="-0.80938">
        <ele>1.7999999523163</ele>
        <time>2015-02-16T08:47:53.000Z</time>
      </trkpt>
      <trkpt lat="46.32705" lon="-0.80939">
        <ele>1.6000000238419</ele>
        <time>2015-02-16T08:48:01.000Z</time>
      </trkpt>
      <trkpt lat="46.32718" lon="-0.80939">
        <ele>1.6000000238419</ele>
        <time>2015-02-16T08:48:11.000Z</time>
      </trkpt>
      <trkpt lat="46.3272" lon="-0.8094">
        <ele>1.6000000238419</ele>
        <time>2015-02-16T08:48:12.000Z</time>
      </trkpt>
      <trkpt lat="46.32731" lon="-0.80939">
        <ele>1.3999999761581</ele>
        <time>2015-02-16T08:48:21.000Z</time>
      </trkpt>
      <trkpt lat="46.3274" lon="-0.80938">
        <ele>1.6000000238419</ele>
        <time>2015-02-16T08:48:28.000Z</time>
      </trkpt>
      <trkpt lat="46.32748" lon="-0.80937">
        <ele>1.6000000238419</ele>
        <time>2015-02-16T08:48:34.000Z</time>
      </trkpt>
      <trkpt lat="46.32758" lon="-0.80938">
        <ele>1.7999999523163</ele>
        <time>2015-02-16T08:48:42.000Z</time>
      </trkpt>
      <trkpt lat="46.32772" lon="-0.80939">
        <ele>1.7999999523163</ele>
        <time>2015-02-16T08:48:53.000Z</time>
      </trkpt>
      <trkpt lat="46.32782" lon="-0.80942">
        <ele>2</ele>
        <time>2015-02-16T08:49:01.000Z</time>
      </trkpt>
      <trkpt lat="46.32792" lon="-0.80947">
        <ele>2</ele>
        <time>2015-02-16T08:49:09.000Z</time>
      </trkpt>
      <trkpt lat="46.32805" lon="-0.80955">
        <ele>2</ele>
        <time>2015-02-16T08:49:19.000Z</time>
      </trkpt>
      <trkpt lat="46.32812" lon="-0.80959">
        <ele>2.2000000476837</ele>
        <time>2015-02-16T08:49:25.000Z</time>
      </trkpt>
      <trkpt lat="46.32822" lon="-0.80964">
        <ele>2</ele>
        <time>2015-02-16T08:49:33.000Z</time>
      </trkpt>
      <trkpt lat="46.32832" lon="-0.80965">
        <ele>2</ele>
        <time>2015-02-16T08:49:41.000Z</time>
      </trkpt>
      <trkpt lat="46.32844" lon="-0.80968">
        <ele>2</ele>
        <time>2015-02-16T08:49:50.000Z</time>
      </trkpt>
      <trkpt lat="46.32851" lon="-0.80969">
        <ele>2</ele>
        <time>2015-02-16T08:49:56.000Z</time>
      </trkpt>
      <trkpt lat="46.32861" lon="-0.80972">
        <ele>2</ele>
        <time>2015-02-16T08:50:04.000Z</time>
      </trkpt>
      <trkpt lat="46.3287" lon="-0.80974">
        <ele>2</ele>
        <time>2015-02-16T08:50:12.000Z</time>
      </trkpt>
      <trkpt lat="46.32883" lon="-0.80977">
        <ele>2</ele>
        <time>2015-02-16T08:50:22.000Z</time>
      </trkpt>
      <trkpt lat="46.32893" lon="-0.8098">
        <ele>2</ele>
        <time>2015-02-16T08:50:30.000Z</time>
      </trkpt>
      <trkpt lat="46.32906" lon="-0.80981">
        <ele>1.7999999523163</ele>
        <time>2015-02-16T08:50:39.000Z</time>
      </trkpt>
      <trkpt lat="46.32919" lon="-0.80984">
        <ele>1.6000000238419</ele>
        <time>2015-02-16T08:50:49.000Z</time>
      </trkpt>
      <trkpt lat="46.32925" lon="-0.80985">
        <ele>1.6000000238419</ele>
        <time>2015-02-16T08:50:54.000Z</time>
      </trkpt>
      <trkpt lat="46.32937" lon="-0.80987">
        <ele>1.3999999761581</ele>
        <time>2015-02-16T08:51:03.000Z</time>
      </trkpt>
      <trkpt lat="46.32947" lon="-0.80989">
        <ele>1.2000000476837</ele>
        <time>2015-02-16T08:51:11.000Z</time>
      </trkpt>
      <trkpt lat="46.32958" lon="-0.80992">
        <ele>1</ele>
        <time>2015-02-16T08:51:20.000Z</time>
      </trkpt>
      <trkpt lat="46.32971" lon="-0.80995">
        <ele>1</ele>
        <time>2015-02-16T08:51:30.000Z</time>
      </trkpt>
      <trkpt lat="46.32986" lon="-0.80997">
        <ele>1.2000000476837</ele>
        <time>2015-02-16T08:51:41.000Z</time>
      </trkpt>
      <trkpt lat="46.33003" lon="-0.80998">
        <ele>1.6000000238419</ele>
        <time>2015-02-16T08:51:53.000Z</time>
      </trkpt>
      <trkpt lat="46.33016" lon="-0.80998">
        <ele>1.7999999523163</ele>
        <time>2015-02-16T08:52:03.000Z</time>
      </trkpt>
      <trkpt lat="46.33025" lon="-0.80998">
        <ele>2</ele>
        <time>2015-02-16T08:52:12.000Z</time>
      </trkpt>
      <trkpt lat="46.33026" lon="-0.80998">
        <ele>2</ele>
        <time>2015-02-16T08:52:13.000Z</time>
      </trkpt>
      <trkpt lat="46.3303" lon="-0.80997">
        <ele>2.2000000476837</ele>
        <time>2015-02-16T08:52:17.000Z</time>
      </trkpt>
      <trkpt lat="46.33033" lon="-0.80995">
        <ele>2.2000000476837</ele>
        <time>2015-02-16T08:52:24.000Z</time>
      </trkpt>
      <trkpt lat="46.33035" lon="-0.80995">
        <ele>2.4000000953674</ele>
        <time>2015-02-16T08:52:42.000Z</time>
      </trkpt>
      <trkpt lat="46.33036" lon="-0.80994">
        <ele>2.4000000953674</ele>
        <time>2015-02-16T08:52:50.000Z</time>
      </trkpt>
      <trkpt lat="46.33038" lon="-0.80993">
        <ele>2.4000000953674</ele>
        <time>2015-02-16T08:52:59.000Z</time>
      </trkpt>
      <trkpt lat="46.33042" lon="-0.80994">
        <ele>2.4000000953674</ele>
        <time>2015-02-16T08:53:15.000Z</time>
      </trkpt>
      <trkpt lat="46.33043" lon="-0.80992">
        <ele>2.5999999046326</ele>
        <time>2015-02-16T08:53:21.000Z</time>
      </trkpt>
      <trkpt lat="46.33047" lon="-0.8099">
        <ele>2.5999999046326</ele>
        <time>2015-02-16T08:53:27.000Z</time>
      </trkpt>
      <trkpt lat="46.33051" lon="-0.80991">
        <ele>2.5999999046326</ele>
        <time>2015-02-16T08:53:37.000Z</time>
      </trkpt>
      <trkpt lat="46.33058" lon="-0.80991">
        <ele>2.5999999046326</ele>
        <time>2015-02-16T08:53:44.000Z</time>
      </trkpt>
      <trkpt lat="46.33069" lon="-0.80992">
        <ele>2.4000000953674</ele>
        <time>2015-02-16T08:53:53.000Z</time>
      </trkpt>
      <trkpt lat="46.33082" lon="-0.80992">
        <ele>2</ele>
        <time>2015-02-16T08:54:03.000Z</time>
      </trkpt>
      <trkpt lat="46.33095" lon="-0.80995">
        <ele>1.7999999523163</ele>
        <time>2015-02-16T08:54:13.000Z</time>
      </trkpt>
      <trkpt lat="46.33105" lon="-0.80999">
        <ele>1.3999999761581</ele>
        <time>2015-02-16T08:54:22.000Z</time>
      </trkpt>
      <trkpt lat="46.33115" lon="-0.81004">
        <ele>1</ele>
        <time>2015-02-16T08:54:30.000Z</time>
      </trkpt>
      <trkpt lat="46.33127" lon="-0.81009">
        <ele>0.80000001192093</ele>
        <time>2015-02-16T08:54:39.000Z</time>
      </trkpt>
      <trkpt lat="46.33141" lon="-0.81015">
        <ele>0.60000002384186</ele>
        <time>2015-02-16T08:54:50.000Z</time>
      </trkpt>
      <trkpt lat="46.33157" lon="-0.81021">
        <ele>0.60000002384186</ele>
        <time>2015-02-16T08:55:02.000Z</time>
      </trkpt>
      <trkpt lat="46.3317" lon="-0.81027">
        <ele>0.80000001192093</ele>
        <time>2015-02-16T08:55:12.000Z</time>
      </trkpt>
      <trkpt lat="46.33179" lon="-0.81031">
        <ele>1.2000000476837</ele>
        <time>2015-02-16T08:55:19.000Z</time>
      </trkpt>
      <trkpt lat="46.33192" lon="-0.81035">
        <ele>1.6000000238419</ele>
        <time>2015-02-16T08:55:29.000Z</time>
      </trkpt>
      <trkpt lat="46.33206" lon="-0.81042">
        <ele>2.2000000476837</ele>
        <time>2015-02-16T08:55:39.000Z</time>
      </trkpt>
      <trkpt lat="46.33219" lon="-0.81048">
        <ele>2.5999999046326</ele>
        <time>2015-02-16T08:55:49.000Z</time>
      </trkpt>
      <trkpt lat="46.33232" lon="-0.81054">
        <ele>3</ele>
        <time>2015-02-16T08:55:59.000Z</time>
      </trkpt>
      <trkpt lat="46.33243" lon="-0.81061">
        <ele>2.7999999523163</ele>
        <time>2015-02-16T08:56:08.000Z</time>
      </trkpt>
      <trkpt lat="46.33258" lon="-0.81068">
        <ele>2.5999999046326</ele>
        <time>2015-02-16T08:56:19.000Z</time>
      </trkpt>
      <trkpt lat="46.33271" lon="-0.81074">
        <ele>2.2000000476837</ele>
        <time>2015-02-16T08:56:29.000Z</time>
      </trkpt>
      <trkpt lat="46.33281" lon="-0.81077">
        <ele>2.2000000476837</ele>
        <time>2015-02-16T08:56:37.000Z</time>
      </trkpt>
      <trkpt lat="46.33291" lon="-0.8108">
        <ele>2</ele>
        <time>2015-02-16T08:56:44.000Z</time>
      </trkpt>
      <trkpt lat="46.33305" lon="-0.81085">
        <ele>2</ele>
        <time>2015-02-16T08:56:55.000Z</time>
      </trkpt>
      <trkpt lat="46.33318" lon="-0.81088">
        <ele>2.2000000476837</ele>
        <time>2015-02-16T08:57:04.000Z</time>
      </trkpt>
      <trkpt lat="46.33328" lon="-0.81092">
        <ele>2.5999999046326</ele>
        <time>2015-02-16T08:57:12.000Z</time>
      </trkpt>
      <trkpt lat="46.33341" lon="-0.81096">
        <ele>3</ele>
        <time>2015-02-16T08:57:21.000Z</time>
      </trkpt>
      <trkpt lat="46.33353" lon="-0.81099">
        <ele>3.4000000953674</ele>
        <time>2015-02-16T08:57:30.000Z</time>
      </trkpt>
      <trkpt lat="46.33369" lon="-0.81104">
        <ele>3.4000000953674</ele>
        <time>2015-02-16T08:57:42.000Z</time>
      </trkpt>
      <trkpt lat="46.33381" lon="-0.81108">
        <ele>3.5999999046326</ele>
        <time>2015-02-16T08:57:51.000Z</time>
      </trkpt>
      <trkpt lat="46.33394" lon="-0.81113">
        <ele>3.5999999046326</ele>
        <time>2015-02-16T08:58:01.000Z</time>
      </trkpt>
      <trkpt lat="46.33405" lon="-0.81116">
        <ele>3.4000000953674</ele>
        <time>2015-02-16T08:58:09.000Z</time>
      </trkpt>
      <trkpt lat="46.3342" lon="-0.81122">
        <ele>3</ele>
        <time>2015-02-16T08:58:20.000Z</time>
      </trkpt>
      <trkpt lat="46.33433" lon="-0.81128">
        <ele>3</ele>
        <time>2015-02-16T08:58:30.000Z</time>
      </trkpt>
      <trkpt lat="46.33445" lon="-0.81138">
        <ele>3</ele>
        <time>2015-02-16T08:58:41.000Z</time>
      </trkpt>
      <trkpt lat="46.33454" lon="-0.81154">
        <ele>3.2000000476837</ele>
        <time>2015-02-16T08:58:52.000Z</time>
      </trkpt>
      <trkpt lat="46.33461" lon="-0.8117">
        <ele>3</ele>
        <time>2015-02-16T08:59:03.000Z</time>
      </trkpt>
      <trkpt lat="46.33468" lon="-0.81184">
        <ele>2.7999999523163</ele>
        <time>2015-02-16T08:59:12.000Z</time>
      </trkpt>
      <trkpt lat="46.33474" lon="-0.81197">
        <ele>2.4000000953674</ele>
        <time>2015-02-16T08:59:20.000Z</time>
      </trkpt>
      <trkpt lat="46.33482" lon="-0.81213">
        <ele>2</ele>
        <time>2015-02-16T08:59:30.000Z</time>
      </trkpt>
      <trkpt lat="46.3349" lon="-0.81231">
        <ele>2.2000000476837</ele>
        <time>2015-02-16T08:59:42.000Z</time>
      </trkpt>
      <trkpt lat="46.33498" lon="-0.81246">
        <ele>2.4000000953674</ele>
        <time>2015-02-16T08:59:52.000Z</time>
      </trkpt>
      <trkpt lat="46.33504" lon="-0.8126">
        <ele>2.7999999523163</ele>
        <time>2015-02-16T09:00:01.000Z</time>
      </trkpt>
      <trkpt lat="46.33511" lon="-0.81276">
        <ele>3</ele>
        <time>2015-02-16T09:00:11.000Z</time>
      </trkpt>
      <trkpt lat="46.33515" lon="-0.81293">
        <ele>3</ele>
        <time>2015-02-16T09:00:21.000Z</time>
      </trkpt>
      <trkpt lat="46.33518" lon="-0.81312">
        <ele>3</ele>
        <time>2015-02-16T09:00:31.000Z</time>
      </trkpt>
      <trkpt lat="46.3352" lon="-0.81328">
        <ele>3</ele>
        <time>2015-02-16T09:00:40.000Z</time>
      </trkpt>
      <trkpt lat="46.33523" lon="-0.81344">
        <ele>3</ele>
        <time>2015-02-16T09:00:49.000Z</time>
      </trkpt>
      <trkpt lat="46.33526" lon="-0.8136">
        <ele>3</ele>
        <time>2015-02-16T09:00:58.000Z</time>
      </trkpt>
      <trkpt lat="46.33528" lon="-0.81368">
        <ele>3</ele>
        <time>2015-02-16T09:01:03.000Z</time>
      </trkpt>
      <trkpt lat="46.33532" lon="-0.81387">
        <ele>3</ele>
        <time>2015-02-16T09:01:13.000Z</time>
      </trkpt>
      <trkpt lat="46.33533" lon="-0.81399">
        <ele>2.7999999523163</ele>
        <time>2015-02-16T09:01:20.000Z</time>
      </trkpt>
      <trkpt lat="46.33536" lon="-0.81403">
        <ele>2.7999999523163</ele>
        <time>2015-02-16T09:01:24.000Z</time>
      </trkpt>
      <trkpt lat="46.33538" lon="-0.81403">
        <ele>2.7999999523163</ele>
        <time>2015-02-16T09:01:31.000Z</time>
      </trkpt>
      <trkpt lat="46.33538" lon="-0.81402">
        <ele>2.7999999523163</ele>
        <time>2015-02-16T09:01:42.000Z</time>
      </trkpt>
      <trkpt lat="46.3354" lon="-0.814">
        <ele>2.7999999523163</ele>
        <time>2015-02-16T09:02:24.000Z</time>
      </trkpt>
      <trkpt lat="46.33538" lon="-0.81399">
        <ele>2.7999999523163</ele>
        <time>2015-02-16T09:02:41.000Z</time>
      </trkpt>
      <trkpt lat="46.3354" lon="-0.81398">
        <ele>2.7999999523163</ele>
        <time>2015-02-16T09:02:59.000Z</time>
      </trkpt>
      <trkpt lat="46.33545" lon="-0.81399">
        <ele>2.7999999523163</ele>
        <time>2015-02-16T09:04:27.000Z</time>
      </trkpt>
      <trkpt lat="46.33549" lon="-0.81396">
        <ele>3</ele>
        <time>2015-02-16T09:04:38.000Z</time>
      </trkpt>
      <trkpt lat="46.33556" lon="-0.81388">
        <ele>3</ele>
        <time>2015-02-16T09:04:47.000Z</time>
      </trkpt>
      <trkpt lat="46.33562" lon="-0.81374">
        <ele>3</ele>
        <time>2015-02-16T09:04:58.000Z</time>
      </trkpt>
      <trkpt lat="46.33561" lon="-0.8136">
        <ele>3</ele>
        <time>2015-02-16T09:05:06.000Z</time>
      </trkpt>
      <trkpt lat="46.33554" lon="-0.8134">
        <ele>3</ele>
        <time>2015-02-16T09:05:18.000Z</time>
      </trkpt>
      <trkpt lat="46.33546" lon="-0.81321">
        <ele>3</ele>
        <time>2015-02-16T09:05:29.000Z</time>
      </trkpt>
      <trkpt lat="46.33531" lon="-0.8128">
        <ele>3</ele>
        <time>2015-02-16T09:05:52.000Z</time>
      </trkpt>
      <trkpt lat="46.33523" lon="-0.81262">
        <ele>3</ele>
        <time>2015-02-16T09:06:02.000Z</time>
      </trkpt>
      <trkpt lat="46.33515" lon="-0.81242">
        <ele>2.5999999046326</ele>
        <time>2015-02-16T09:06:13.000Z</time>
      </trkpt>
      <trkpt lat="46.33508" lon="-0.81222">
        <ele>2.4000000953674</ele>
        <time>2015-02-16T09:06:24.000Z</time>
      </trkpt>
      <trkpt lat="46.33499" lon="-0.81202">
        <ele>2</ele>
        <time>2015-02-16T09:06:36.000Z</time>
      </trkpt>
      <trkpt lat="46.33489" lon="-0.81178">
        <ele>2.4000000953674</ele>
        <time>2015-02-16T09:06:49.000Z</time>
      </trkpt>
      <trkpt lat="46.33484" lon="-0.81163">
        <ele>2.5999999046326</ele>
        <time>2015-02-16T09:06:57.000Z</time>
      </trkpt>
      <trkpt lat="46.33476" lon="-0.81143">
        <ele>3</ele>
        <time>2015-02-16T09:07:08.000Z</time>
      </trkpt>
      <trkpt lat="46.33467" lon="-0.81119">
        <ele>3</ele>
        <time>2015-02-16T09:07:21.000Z</time>
      </trkpt>
      <trkpt lat="46.33459" lon="-0.81101">
        <ele>3</ele>
        <time>2015-02-16T09:07:31.000Z</time>
      </trkpt>
      <trkpt lat="46.33452" lon="-0.81083">
        <ele>3</ele>
        <time>2015-02-16T09:07:41.000Z</time>
      </trkpt>
      <trkpt lat="46.33442" lon="-0.81059">
        <ele>3.7999999523163</ele>
        <time>2015-02-16T09:07:54.000Z</time>
      </trkpt>
      <trkpt lat="46.33435" lon="-0.81041">
        <ele>4.1999998092651</ele>
        <time>2015-02-16T09:08:04.000Z</time>
      </trkpt>
      <trkpt lat="46.33428" lon="-0.81025">
        <ele>4.1999998092651</ele>
        <time>2015-02-16T09:08:13.000Z</time>
      </trkpt>
      <trkpt lat="46.33422" lon="-0.8101">
        <ele>4.4000000953674</ele>
        <time>2015-02-16T09:08:21.000Z</time>
      </trkpt>
      <trkpt lat="46.33415" lon="-0.80993">
        <ele>4.5999999046326</ele>
        <time>2015-02-16T09:08:30.000Z</time>
      </trkpt>
      <trkpt lat="46.33406" lon="-0.80972">
        <ele>4.8000001907349</ele>
        <time>2015-02-16T09:08:42.000Z</time>
      </trkpt>
      <trkpt lat="46.33396" lon="-0.80946">
        <ele>4.5999999046326</ele>
        <time>2015-02-16T09:08:56.000Z</time>
      </trkpt>
      <trkpt lat="46.33386" lon="-0.80924">
        <ele>4.1999998092651</ele>
        <time>2015-02-16T09:09:08.000Z</time>
      </trkpt>
      <trkpt lat="46.33379" lon="-0.80905">
        <ele>4</ele>
        <time>2015-02-16T09:09:18.000Z</time>
      </trkpt>
      <trkpt lat="46.33369" lon="-0.80882">
        <ele>4</ele>
        <time>2015-02-16T09:09:31.000Z</time>
      </trkpt>
      <trkpt lat="46.3336" lon="-0.80866">
        <ele>4</ele>
        <time>2015-02-16T09:09:40.000Z</time>
      </trkpt>
      <trkpt lat="46.3335" lon="-0.80851">
        <ele>4</ele>
        <time>2015-02-16T09:09:50.000Z</time>
      </trkpt>
      <trkpt lat="46.33338" lon="-0.80837">
        <ele>3.5999999046326</ele>
        <time>2015-02-16T09:10:00.000Z</time>
      </trkpt>
      <trkpt lat="46.33313" lon="-0.80813">
        <ele>3</ele>
        <time>2015-02-16T09:10:20.000Z</time>
      </trkpt>
      <trkpt lat="46.33301" lon="-0.80804">
        <ele>2.7999999523163</ele>
        <time>2015-02-16T09:10:29.000Z</time>
      </trkpt>
      <trkpt lat="46.33286" lon="-0.80795">
        <ele>2.7999999523163</ele>
        <time>2015-02-16T09:10:40.000Z</time>
      </trkpt>
      <trkpt lat="46.33269" lon="-0.8079">
        <ele>2.5999999046326</ele>
        <time>2015-02-16T09:10:51.000Z</time>
      </trkpt>
      <trkpt lat="46.33253" lon="-0.80788">
        <ele>2.4000000953674</ele>
        <time>2015-02-16T09:11:01.000Z</time>
      </trkpt>
      <trkpt lat="46.33239" lon="-0.80787">
        <ele>2.4000000953674</ele>
        <time>2015-02-16T09:11:10.000Z</time>
      </trkpt>
      <trkpt lat="46.33225" lon="-0.80789">
        <ele>2.2000000476837</ele>
        <time>2015-02-16T09:11:19.000Z</time>
      </trkpt>
      <trkpt lat="46.33211" lon="-0.8079">
        <ele>2.4000000953674</ele>
        <time>2015-02-16T09:11:28.000Z</time>
      </trkpt>
      <trkpt lat="46.33195" lon="-0.8079">
        <ele>2.5999999046326</ele>
        <time>2015-02-16T09:11:38.000Z</time>
      </trkpt>
      <trkpt lat="46.33179" lon="-0.80789">
        <ele>2.7999999523163</ele>
        <time>2015-02-16T09:11:48.000Z</time>
      </trkpt>
      <trkpt lat="46.33162" lon="-0.80789">
        <ele>3</ele>
        <time>2015-02-16T09:11:59.000Z</time>
      </trkpt>
      <trkpt lat="46.33147" lon="-0.80788">
        <ele>3.2000000476837</ele>
        <time>2015-02-16T09:12:08.000Z</time>
      </trkpt>
      <trkpt lat="46.33134" lon="-0.80786">
        <ele>3</ele>
        <time>2015-02-16T09:12:17.000Z</time>
      </trkpt>
      <trkpt lat="46.33116" lon="-0.80783">
        <ele>2.7999999523163</ele>
        <time>2015-02-16T09:12:29.000Z</time>
      </trkpt>
      <trkpt lat="46.33099" lon="-0.80778">
        <ele>2.7999999523163</ele>
        <time>2015-02-16T09:12:40.000Z</time>
      </trkpt>
      <trkpt lat="46.33085" lon="-0.80774">
        <ele>2.5999999046326</ele>
        <time>2015-02-16T09:12:50.000Z</time>
      </trkpt>
      <trkpt lat="46.33072" lon="-0.80769">
        <ele>2.5999999046326</ele>
        <time>2015-02-16T09:12:59.000Z</time>
      </trkpt>
      <trkpt lat="46.33056" lon="-0.80763">
        <ele>2.5999999046326</ele>
        <time>2015-02-16T09:13:10.000Z</time>
      </trkpt>
      <trkpt lat="46.33043" lon="-0.80756">
        <ele>2.7999999523163</ele>
        <time>2015-02-16T09:13:20.000Z</time>
      </trkpt>
      <trkpt lat="46.3303" lon="-0.80749">
        <ele>3</ele>
        <time>2015-02-16T09:13:30.000Z</time>
      </trkpt>
      <trkpt lat="46.33018" lon="-0.80741">
        <ele>3.4000000953674</ele>
        <time>2015-02-16T09:13:40.000Z</time>
      </trkpt>
      <trkpt lat="46.33006" lon="-0.80733">
        <ele>3.5999999046326</ele>
        <time>2015-02-16T09:13:49.000Z</time>
      </trkpt>
      <trkpt lat="46.32996" lon="-0.80727">
        <ele>3.7999999523163</ele>
        <time>2015-02-16T09:13:56.000Z</time>
      </trkpt>
      <trkpt lat="46.32985" lon="-0.80719">
        <ele>4</ele>
        <time>2015-02-16T09:14:04.000Z</time>
      </trkpt>
      <trkpt lat="46.32971" lon="-0.8071">
        <ele>4</ele>
        <time>2015-02-16T09:14:14.000Z</time>
      </trkpt>
      <trkpt lat="46.32958" lon="-0.80702">
        <ele>3.7999999523163</ele>
        <time>2015-02-16T09:14:24.000Z</time>
      </trkpt>
      <trkpt lat="46.32945" lon="-0.80693">
        <ele>3.4000000953674</ele>
        <time>2015-02-16T09:14:34.000Z</time>
      </trkpt>
      <trkpt lat="46.32931" lon="-0.80685">
        <ele>3.2000000476837</ele>
        <time>2015-02-16T09:14:43.000Z</time>
      </trkpt>
      <trkpt lat="46.32919" lon="-0.80676">
        <ele>3.4000000953674</ele>
        <time>2015-02-16T09:14:52.000Z</time>
      </trkpt>
      <trkpt lat="46.32907" lon="-0.80669">
        <ele>3.4000000953674</ele>
        <time>2015-02-16T09:15:00.000Z</time>
      </trkpt>
      <trkpt lat="46.32893" lon="-0.80659">
        <ele>3.5999999046326</ele>
        <time>2015-02-16T09:15:10.000Z</time>
      </trkpt>
      <trkpt lat="46.32879" lon="-0.80651">
        <ele>3.7999999523163</ele>
        <time>2015-02-16T09:15:20.000Z</time>
      </trkpt>
      <trkpt lat="46.32868" lon="-0.80644">
        <ele>4</ele>
        <time>2015-02-16T09:15:28.000Z</time>
      </trkpt>
      <trkpt lat="46.32843" lon="-0.80626">
        <ele>4</ele>
        <time>2015-02-16T09:15:47.000Z</time>
      </trkpt>
      <trkpt lat="46.32833" lon="-0.80619">
        <ele>4</ele>
        <time>2015-02-16T09:15:55.000Z</time>
      </trkpt>
      <trkpt lat="46.32817" lon="-0.80605">
        <ele>4</ele>
        <time>2015-02-16T09:16:07.000Z</time>
      </trkpt>
      <trkpt lat="46.32804" lon="-0.80594">
        <ele>3.7999999523163</ele>
        <time>2015-02-16T09:16:17.000Z</time>
      </trkpt>
      <trkpt lat="46.32792" lon="-0.80585">
        <ele>3.7999999523163</ele>
        <time>2015-02-16T09:16:26.000Z</time>
      </trkpt>
      <trkpt lat="46.32765" lon="-0.80564">
        <ele>3.4000000953674</ele>
        <time>2015-02-16T09:16:47.000Z</time>
      </trkpt>
      <trkpt lat="46.3275" lon="-0.80553">
        <ele>3.2000000476837</ele>
        <time>2015-02-16T09:16:58.000Z</time>
      </trkpt>
      <trkpt lat="46.32738" lon="-0.80543">
        <ele>2.7999999523163</ele>
        <time>2015-02-16T09:17:07.000Z</time>
      </trkpt>
      <trkpt lat="46.32723" lon="-0.80529">
        <ele>2.4000000953674</ele>
        <time>2015-02-16T09:17:19.000Z</time>
      </trkpt>
      <trkpt lat="46.32711" lon="-0.8052">
        <ele>2.2000000476837</ele>
        <time>2015-02-16T09:17:28.000Z</time>
      </trkpt>
      <trkpt lat="46.32707" lon="-0.80516">
        <ele>2</ele>
        <time>2015-02-16T09:17:31.000Z</time>
      </trkpt>
      <trkpt lat="46.32693" lon="-0.80505">
        <ele>1.7999999523163</ele>
        <time>2015-02-16T09:17:42.000Z</time>
      </trkpt>
      <trkpt lat="46.32678" lon="-0.80492">
        <ele>2.2000000476837</ele>
        <time>2015-02-16T09:17:54.000Z</time>
      </trkpt>
      <trkpt lat="46.32662" lon="-0.80478">
        <ele>2.5999999046326</ele>
        <time>2015-02-16T09:18:06.000Z</time>
      </trkpt>
      <trkpt lat="46.32648" lon="-0.80465">
        <ele>3</ele>
        <time>2015-02-16T09:18:17.000Z</time>
      </trkpt>
      <trkpt lat="46.32636" lon="-0.80453">
        <ele>2.7999999523163</ele>
        <time>2015-02-16T09:18:27.000Z</time>
      </trkpt>
      <trkpt lat="46.32624" lon="-0.8044">
        <ele>2.5999999046326</ele>
        <time>2015-02-16T09:18:37.000Z</time>
      </trkpt>
      <trkpt lat="46.3261" lon="-0.80425">
        <ele>2.4000000953674</ele>
        <time>2015-02-16T09:18:48.000Z</time>
      </trkpt>
      <trkpt lat="46.326" lon="-0.80413">
        <ele>2.5999999046326</ele>
        <time>2015-02-16T09:18:57.000Z</time>
      </trkpt>
      <trkpt lat="46.3259" lon="-0.80402">
        <ele>2.5999999046326</ele>
        <time>2015-02-16T09:19:06.000Z</time>
      </trkpt>
      <trkpt lat="46.32582" lon="-0.80392">
        <ele>2.7999999523163</ele>
        <time>2015-02-16T09:19:13.000Z</time>
      </trkpt>
      <trkpt lat="46.32573" lon="-0.80381">
        <ele>3</ele>
        <time>2015-02-16T09:19:21.000Z</time>
      </trkpt>
      <trkpt lat="46.32562" lon="-0.80368">
        <ele>3.2000000476837</ele>
        <time>2015-02-16T09:19:30.000Z</time>
      </trkpt>
      <trkpt lat="46.32553" lon="-0.80355">
        <ele>3.4000000953674</ele>
        <time>2015-02-16T09:19:39.000Z</time>
      </trkpt>
      <trkpt lat="46.32543" lon="-0.80341">
        <ele>3.5999999046326</ele>
        <time>2015-02-16T09:19:48.000Z</time>
      </trkpt>
      <trkpt lat="46.3253" lon="-0.80322">
        <ele>3.7999999523163</ele>
        <time>2015-02-16T09:20:00.000Z</time>
      </trkpt>
      <trkpt lat="46.32521" lon="-0.80305">
        <ele>4</ele>
        <time>2015-02-16T09:20:10.000Z</time>
      </trkpt>
      <trkpt lat="46.32512" lon="-0.80285">
        <ele>3.2000000476837</ele>
        <time>2015-02-16T09:20:21.000Z</time>
      </trkpt>
      <trkpt lat="46.32503" lon="-0.80265">
        <ele>3</ele>
        <time>2015-02-16T09:20:32.000Z</time>
      </trkpt>
      <trkpt lat="46.32493" lon="-0.80243">
        <ele>3</ele>
        <time>2015-02-16T09:20:44.000Z</time>
      </trkpt>
      <trkpt lat="46.32487" lon="-0.80227">
        <ele>3</ele>
        <time>2015-02-16T09:20:53.000Z</time>
      </trkpt>
      <trkpt lat="46.32478" lon="-0.80206">
        <ele>3</ele>
        <time>2015-02-16T09:21:04.000Z</time>
      </trkpt>
      <trkpt lat="46.32472" lon="-0.80191">
        <ele>3</ele>
        <time>2015-02-16T09:21:12.000Z</time>
      </trkpt>
      <trkpt lat="46.32465" lon="-0.80172">
        <ele>3.2000000476837</ele>
        <time>2015-02-16T09:21:22.000Z</time>
      </trkpt>
      <trkpt lat="46.32458" lon="-0.80157">
        <ele>3.2000000476837</ele>
        <time>2015-02-16T09:21:30.000Z</time>
      </trkpt>
      <trkpt lat="46.32449" lon="-0.80142">
        <ele>3</ele>
        <time>2015-02-16T09:21:39.000Z</time>
      </trkpt>
      <trkpt lat="46.32438" lon="-0.80132">
        <ele>3</ele>
        <time>2015-02-16T09:21:48.000Z</time>
      </trkpt>
      <trkpt lat="46.32426" lon="-0.80122">
        <ele>2.7999999523163</ele>
        <time>2015-02-16T09:21:57.000Z</time>
      </trkpt>
      <trkpt lat="46.32414" lon="-0.80115">
        <ele>2.7999999523163</ele>
        <time>2015-02-16T09:22:05.000Z</time>
      </trkpt>
      <trkpt lat="46.324" lon="-0.80106">
        <ele>2.5999999046326</ele>
        <time>2015-02-16T09:22:15.000Z</time>
      </trkpt>
      <trkpt lat="46.32389" lon="-0.80097">
        <ele>2.5999999046326</ele>
        <time>2015-02-16T09:22:24.000Z</time>
      </trkpt>
      <trkpt lat="46.32381" lon="-0.80084">
        <ele>2.4000000953674</ele>
        <time>2015-02-16T09:22:32.000Z</time>
      </trkpt>
      <trkpt lat="46.32377" lon="-0.80063">
        <ele>2.2000000476837</ele>
        <time>2015-02-16T09:22:42.000Z</time>
      </trkpt>
      <trkpt lat="46.3238" lon="-0.80044">
        <ele>2.2000000476837</ele>
        <time>2015-02-16T09:22:51.000Z</time>
      </trkpt>
      <trkpt lat="46.32387" lon="-0.80029">
        <ele>2.2000000476837</ele>
        <time>2015-02-16T09:22:59.000Z</time>
      </trkpt>
      <trkpt lat="46.32396" lon="-0.8001">
        <ele>2</ele>
        <time>2015-02-16T09:23:10.000Z</time>
      </trkpt>
      <trkpt lat="46.32404" lon="-0.79993">
        <ele>2</ele>
        <time>2015-02-16T09:23:20.000Z</time>
      </trkpt>
      <trkpt lat="46.3241" lon="-0.7998">
        <ele>2</ele>
        <time>2015-02-16T09:23:28.000Z</time>
      </trkpt>
      <trkpt lat="46.32416" lon="-0.79965">
        <ele>2</ele>
        <time>2015-02-16T09:23:37.000Z</time>
      </trkpt>
      <trkpt lat="46.32421" lon="-0.79955">
        <ele>1.7999999523163</ele>
        <time>2015-02-16T09:23:43.000Z</time>
      </trkpt>
      <trkpt lat="46.32427" lon="-0.79943">
        <ele>1.6000000238419</ele>
        <time>2015-02-16T09:23:51.000Z</time>
      </trkpt>
      <trkpt lat="46.32434" lon="-0.79929">
        <ele>1.6000000238419</ele>
        <time>2015-02-16T09:23:59.000Z</time>
      </trkpt>
      <trkpt lat="46.32443" lon="-0.79914">
        <ele>1.6000000238419</ele>
        <time>2015-02-16T09:24:08.000Z</time>
      </trkpt>
      <trkpt lat="46.32453" lon="-0.79896">
        <ele>1.6000000238419</ele>
        <time>2015-02-16T09:24:19.000Z</time>
      </trkpt>
      <trkpt lat="46.3246" lon="-0.7988">
        <ele>1.6000000238419</ele>
        <time>2015-02-16T09:24:28.000Z</time>
      </trkpt>
      <trkpt lat="46.32465" lon="-0.7986">
        <ele>1.7999999523163</ele>
        <time>2015-02-16T09:24:38.000Z</time>
      </trkpt>
      <trkpt lat="46.32469" lon="-0.79836">
        <ele>2</ele>
        <time>2015-02-16T09:24:50.000Z</time>
      </trkpt>
      <trkpt lat="46.32472" lon="-0.79812">
        <ele>2</ele>
        <time>2015-02-16T09:25:01.000Z</time>
      </trkpt>
      <trkpt lat="46.32474" lon="-0.79792">
        <ele>2</ele>
        <time>2015-02-16T09:25:11.000Z</time>
      </trkpt>
      <trkpt lat="46.32476" lon="-0.7977">
        <ele>2</ele>
        <time>2015-02-16T09:25:21.000Z</time>
      </trkpt>
      <trkpt lat="46.32478" lon="-0.79749">
        <ele>2</ele>
        <time>2015-02-16T09:25:31.000Z</time>
      </trkpt>
      <trkpt lat="46.32481" lon="-0.79731">
        <ele>2</ele>
        <time>2015-02-16T09:25:40.000Z</time>
      </trkpt>
      <trkpt lat="46.32483" lon="-0.79714">
        <ele>2</ele>
        <time>2015-02-16T09:25:48.000Z</time>
      </trkpt>
      <trkpt lat="46.32486" lon="-0.79688">
        <ele>2</ele>
        <time>2015-02-16T09:26:00.000Z</time>
      </trkpt>
      <trkpt lat="46.32488" lon="-0.79664">
        <ele>2</ele>
        <time>2015-02-16T09:26:11.000Z</time>
      </trkpt>
      <trkpt lat="46.3249" lon="-0.79639">
        <ele>2.2000000476837</ele>
        <time>2015-02-16T09:26:23.000Z</time>
      </trkpt>
      <trkpt lat="46.32492" lon="-0.79615">
        <ele>2.2000000476837</ele>
        <time>2015-02-16T09:26:34.000Z</time>
      </trkpt>
      <trkpt lat="46.32496" lon="-0.79568">
        <ele>2.5999999046326</ele>
        <time>2015-02-16T09:26:56.000Z</time>
      </trkpt>
      <trkpt lat="46.32498" lon="-0.79547">
        <ele>2.7999999523163</ele>
        <time>2015-02-16T09:27:06.000Z</time>
      </trkpt>
      <trkpt lat="46.32498" lon="-0.7953">
        <ele>3</ele>
        <time>2015-02-16T09:27:14.000Z</time>
      </trkpt>
      <trkpt lat="46.32499" lon="-0.79507">
        <ele>2.5999999046326</ele>
        <time>2015-02-16T09:27:25.000Z</time>
      </trkpt>
      <trkpt lat="46.32499" lon="-0.79481">
        <ele>2.4000000953674</ele>
        <time>2015-02-16T09:27:37.000Z</time>
      </trkpt>
      <trkpt lat="46.32497" lon="-0.79458">
        <ele>2.4000000953674</ele>
        <time>2015-02-16T09:27:48.000Z</time>
      </trkpt>
      <trkpt lat="46.32494" lon="-0.79439">
        <ele>2.5999999046326</ele>
        <time>2015-02-16T09:27:57.000Z</time>
      </trkpt>
      <trkpt lat="46.32489" lon="-0.79419">
        <ele>2.7999999523163</ele>
        <time>2015-02-16T09:28:07.000Z</time>
      </trkpt>
      <trkpt lat="46.32485" lon="-0.79404">
        <ele>2.7999999523163</ele>
        <time>2015-02-16T09:28:15.000Z</time>
      </trkpt>
      <trkpt lat="46.32477" lon="-0.79387">
        <ele>3</ele>
        <time>2015-02-16T09:28:24.000Z</time>
      </trkpt>
      <trkpt lat="46.3247" lon="-0.79371">
        <ele>2.7999999523163</ele>
        <time>2015-02-16T09:28:33.000Z</time>
      </trkpt>
      <trkpt lat="46.32461" lon="-0.79352">
        <ele>2.5999999046326</ele>
        <time>2015-02-16T09:28:44.000Z</time>
      </trkpt>
      <trkpt lat="46.32452" lon="-0.79333">
        <ele>2.4000000953674</ele>
        <time>2015-02-16T09:28:55.000Z</time>
      </trkpt>
      <trkpt lat="46.3244" lon="-0.79314">
        <ele>2.7999999523163</ele>
        <time>2015-02-16T09:29:07.000Z</time>
      </trkpt>
      <trkpt lat="46.32432" lon="-0.79299">
        <ele>3</ele>
        <time>2015-02-16T09:29:16.000Z</time>
      </trkpt>
      <trkpt lat="46.32424" lon="-0.79284">
        <ele>3</ele>
        <time>2015-02-16T09:29:25.000Z</time>
      </trkpt>
      <trkpt lat="46.32415" lon="-0.79268">
        <ele>3</ele>
        <time>2015-02-16T09:29:35.000Z</time>
      </trkpt>
      <trkpt lat="46.32404" lon="-0.79248">
        <ele>3</ele>
        <time>2015-02-16T09:29:47.000Z</time>
      </trkpt>
      <trkpt lat="46.32394" lon="-0.7923">
        <ele>3</ele>
        <time>2015-02-16T09:29:58.000Z</time>
      </trkpt>
      <trkpt lat="46.32387" lon="-0.79217">
        <ele>2.7999999523163</ele>
        <time>2015-02-16T09:30:06.000Z</time>
      </trkpt>
      <trkpt lat="46.32381" lon="-0.79205">
        <ele>2.7999999523163</ele>
        <time>2015-02-16T09:30:13.000Z</time>
      </trkpt>
      <trkpt lat="46.32371" lon="-0.79189">
        <ele>2.5999999046326</ele>
        <time>2015-02-16T09:30:23.000Z</time>
      </trkpt>
      <trkpt lat="46.32364" lon="-0.79175">
        <ele>2.5999999046326</ele>
        <time>2015-02-16T09:30:31.000Z</time>
      </trkpt>
      <trkpt lat="46.32352" lon="-0.79156">
        <ele>2.2000000476837</ele>
        <time>2015-02-16T09:30:43.000Z</time>
      </trkpt>
      <trkpt lat="46.32343" lon="-0.7914">
        <ele>1.7999999523163</ele>
        <time>2015-02-16T09:30:53.000Z</time>
      </trkpt>
      <trkpt lat="46.32333" lon="-0.79125">
        <ele>1.6000000238419</ele>
        <time>2015-02-16T09:31:03.000Z</time>
      </trkpt>
      <trkpt lat="46.32325" lon="-0.79108">
        <ele>1.6000000238419</ele>
        <time>2015-02-16T09:31:13.000Z</time>
      </trkpt>
      <trkpt lat="46.32317" lon="-0.79093">
        <ele>1.6000000238419</ele>
        <time>2015-02-16T09:31:22.000Z</time>
      </trkpt>
      <trkpt lat="46.32306" lon="-0.79071">
        <ele>1.7999999523163</ele>
        <time>2015-02-16T09:31:35.000Z</time>
      </trkpt>
      <trkpt lat="46.32295" lon="-0.79051">
        <ele>2.2000000476837</ele>
        <time>2015-02-16T09:31:47.000Z</time>
      </trkpt>
      <trkpt lat="46.32286" lon="-0.79031">
        <ele>2.5999999046326</ele>
        <time>2015-02-16T09:31:58.000Z</time>
      </trkpt>
      <trkpt lat="46.32279" lon="-0.79015">
        <ele>2.7999999523163</ele>
        <time>2015-02-16T09:32:07.000Z</time>
      </trkpt>
      <trkpt lat="46.3227" lon="-0.78997">
        <ele>3</ele>
        <time>2015-02-16T09:32:17.000Z</time>
      </trkpt>
      <trkpt lat="46.32261" lon="-0.7898">
        <ele>3</ele>
        <time>2015-02-16T09:32:27.000Z</time>
      </trkpt>
      <trkpt lat="46.32252" lon="-0.78961">
        <ele>3.2000000476837</ele>
        <time>2015-02-16T09:32:38.000Z</time>
      </trkpt>
      <trkpt lat="46.32242" lon="-0.78943">
        <ele>3</ele>
        <time>2015-02-16T09:32:49.000Z</time>
      </trkpt>
      <trkpt lat="46.32233" lon="-0.78929">
        <ele>2.5999999046326</ele>
        <time>2015-02-16T09:32:58.000Z</time>
      </trkpt>
      <trkpt lat="46.32221" lon="-0.78915">
        <ele>2.2000000476837</ele>
        <time>2015-02-16T09:33:09.000Z</time>
      </trkpt>
      <trkpt lat="46.32207" lon="-0.789">
        <ele>2.2000000476837</ele>
        <time>2015-02-16T09:33:21.000Z</time>
      </trkpt>
      <trkpt lat="46.32194" lon="-0.78887">
        <ele>2.4000000953674</ele>
        <time>2015-02-16T09:33:32.000Z</time>
      </trkpt>
      <trkpt lat="46.32178" lon="-0.78875">
        <ele>2.7999999523163</ele>
        <time>2015-02-16T09:33:44.000Z</time>
      </trkpt>
      <trkpt lat="46.32162" lon="-0.78864">
        <ele>3.2000000476837</ele>
        <time>2015-02-16T09:33:57.000Z</time>
      </trkpt>
      <trkpt lat="46.32149" lon="-0.78854">
        <ele>3.4000000953674</ele>
        <time>2015-02-16T09:34:06.000Z</time>
      </trkpt>
      <trkpt lat="46.32134" lon="-0.78844">
        <ele>3.5999999046326</ele>
        <time>2015-02-16T09:34:17.000Z</time>
      </trkpt>
      <trkpt lat="46.32123" lon="-0.78835">
        <ele>3.5999999046326</ele>
        <time>2015-02-16T09:34:27.000Z</time>
      </trkpt>
      <trkpt lat="46.3211" lon="-0.78824">
        <ele>3.5999999046326</ele>
        <time>2015-02-16T09:34:37.000Z</time>
      </trkpt>
      <trkpt lat="46.32099" lon="-0.78817">
        <ele>3.4000000953674</ele>
        <time>2015-02-16T09:34:45.000Z</time>
      </trkpt>
      <trkpt lat="46.32085" lon="-0.78808">
        <ele>3.2000000476837</ele>
        <time>2015-02-16T09:34:56.000Z</time>
      </trkpt>
      <trkpt lat="46.32082" lon="-0.78807">
        <ele>3.2000000476837</ele>
        <time>2015-02-16T09:35:02.000Z</time>
      </trkpt>
      <trkpt lat="46.32082" lon="-0.78806">
        <ele>3.2000000476837</ele>
        <time>2015-02-16T09:35:07.000Z</time>
      </trkpt>
      <trkpt lat="46.32083" lon="-0.78806">
        <ele>3.2000000476837</ele>
        <time>2015-02-16T09:35:36.000Z</time>
      </trkpt>
      <trkpt lat="46.32085" lon="-0.78802">
        <ele>3.2000000476837</ele>
        <time>2015-02-16T09:35:44.000Z</time>
      </trkpt>
      <trkpt lat="46.32084" lon="-0.78802">
        <ele>3.2000000476837</ele>
        <time>2015-02-16T09:36:49.000Z</time>
      </trkpt>
      <trkpt lat="46.32081" lon="-0.78804">
        <ele>3.2000000476837</ele>
        <time>2015-02-16T09:41:20.000Z</time>
      </trkpt>
      <trkpt lat="46.32082" lon="-0.78805">
        <ele>3.2000000476837</ele>
        <time>2015-02-16T09:41:55.000Z</time>
      </trkpt>
      <trkpt lat="46.32081" lon="-0.78804">
        <ele>3.2000000476837</ele>
        <time>2015-02-16T09:42:09.000Z</time>
      </trkpt>
      <trkpt lat="46.32078" lon="-0.78798">
        <ele>3.2000000476837</ele>
        <time>2015-02-16T09:42:27.000Z</time>
      </trkpt>
      <trkpt lat="46.32077" lon="-0.78795">
        <ele>3.2000000476837</ele>
        <time>2015-02-16T09:42:33.000Z</time>
      </trkpt>
      <trkpt lat="46.32073" lon="-0.78792">
        <ele>3.2000000476837</ele>
        <time>2015-02-16T09:42:42.000Z</time>
      </trkpt>
      <trkpt lat="46.32072" lon="-0.78785">
        <ele>3.2000000476837</ele>
        <time>2015-02-16T09:42:51.000Z</time>
      </trkpt>
      <trkpt lat="46.32067" lon="-0.78774">
        <ele>3.4000000953674</ele>
        <time>2015-02-16T09:43:00.000Z</time>
      </trkpt>
      <trkpt lat="46.3206" lon="-0.78763">
        <ele>3.4000000953674</ele>
        <time>2015-02-16T09:43:09.000Z</time>
      </trkpt>
      <trkpt lat="46.32054" lon="-0.7875">
        <ele>3.5999999046326</ele>
        <time>2015-02-16T09:43:17.000Z</time>
      </trkpt>
      <trkpt lat="46.32047" lon="-0.78735">
        <ele>3.5999999046326</ele>
        <time>2015-02-16T09:43:27.000Z</time>
      </trkpt>
      <trkpt lat="46.3204" lon="-0.78718">
        <ele>4</ele>
        <time>2015-02-16T09:43:39.000Z</time>
      </trkpt>
      <trkpt lat="46.32035" lon="-0.78706">
        <ele>4.1999998092651</ele>
        <time>2015-02-16T09:43:47.000Z</time>
      </trkpt>
      <trkpt lat="46.32028" lon="-0.78691">
        <ele>4.4000000953674</ele>
        <time>2015-02-16T09:43:57.000Z</time>
      </trkpt>
      <trkpt lat="46.32019" lon="-0.78676">
        <ele>4.4000000953674</ele>
        <time>2015-02-16T09:44:08.000Z</time>
      </trkpt>
      <trkpt lat="46.32014" lon="-0.78665">
        <ele>4.4000000953674</ele>
        <time>2015-02-16T09:44:17.000Z</time>
      </trkpt>
      <trkpt lat="46.32007" lon="-0.78652">
        <ele>4.4000000953674</ele>
        <time>2015-02-16T09:44:26.000Z</time>
      </trkpt>
      <trkpt lat="46.31999" lon="-0.78638">
        <ele>4.1999998092651</ele>
        <time>2015-02-16T09:44:35.000Z</time>
      </trkpt>
      <trkpt lat="46.3199" lon="-0.78624">
        <ele>4</ele>
        <time>2015-02-16T09:44:45.000Z</time>
      </trkpt>
      <trkpt lat="46.3198" lon="-0.78612">
        <ele>4</ele>
        <time>2015-02-16T09:44:54.000Z</time>
      </trkpt>
      <trkpt lat="46.31971" lon="-0.78604">
        <ele>3.7999999523163</ele>
        <time>2015-02-16T09:45:03.000Z</time>
      </trkpt>
      <trkpt lat="46.31967" lon="-0.78604">
        <ele>3.7999999523163</ele>
        <time>2015-02-16T09:45:10.000Z</time>
      </trkpt>
      <trkpt lat="46.31967" lon="-0.78605">
        <ele>3.7999999523163</ele>
        <time>2015-02-16T09:45:17.000Z</time>
      </trkpt>
      <trkpt lat="46.31964" lon="-0.78602">
        <ele>3.7999999523163</ele>
        <time>2015-02-16T09:45:23.000Z</time>
      </trkpt>
      <trkpt lat="46.31958" lon="-0.78595">
        <ele>3.7999999523163</ele>
        <time>2015-02-16T09:45:29.000Z</time>
      </trkpt>
      <trkpt lat="46.31949" lon="-0.78586">
        <ele>3.5999999046326</ele>
        <time>2015-02-16T09:45:36.000Z</time>
      </trkpt>
      <trkpt lat="46.31937" lon="-0.78573">
        <ele>3.4000000953674</ele>
        <time>2015-02-16T09:45:48.000Z</time>
      </trkpt>
      <trkpt lat="46.31926" lon="-0.78561">
        <ele>3.4000000953674</ele>
        <time>2015-02-16T09:45:57.000Z</time>
      </trkpt>
      <trkpt lat="46.31914" lon="-0.78548">
        <ele>3.2000000476837</ele>
        <time>2015-02-16T09:46:08.000Z</time>
      </trkpt>
      <trkpt lat="46.31913" lon="-0.78549">
        <ele>3.2000000476837</ele>
        <time>2015-02-16T09:46:09.000Z</time>
      </trkpt>
      <trkpt lat="46.31914" lon="-0.7855">
        <ele>3.2000000476837</ele>
        <time>2015-02-16T09:46:17.000Z</time>
      </trkpt>
      <trkpt lat="46.31912" lon="-0.78548">
        <ele>3.2000000476837</ele>
        <time>2015-02-16T09:46:25.000Z</time>
      </trkpt>
      <trkpt lat="46.31907" lon="-0.78541">
        <ele>3.2000000476837</ele>
        <time>2015-02-16T09:46:30.000Z</time>
      </trkpt>
      <trkpt lat="46.31904" lon="-0.78533">
        <ele>3</ele>
        <time>2015-02-16T09:46:36.000Z</time>
      </trkpt>
      <trkpt lat="46.31899" lon="-0.78522">
        <ele>2.5999999046326</ele>
        <time>2015-02-16T09:46:42.000Z</time>
      </trkpt>
      <trkpt lat="46.31894" lon="-0.78504">
        <ele>2.4000000953674</ele>
        <time>2015-02-16T09:46:52.000Z</time>
      </trkpt>
      <trkpt lat="46.31892" lon="-0.7849">
        <ele>2.2000000476837</ele>
        <time>2015-02-16T09:46:59.000Z</time>
      </trkpt>
      <trkpt lat="46.31891" lon="-0.78475">
        <ele>2</ele>
        <time>2015-02-16T09:47:06.000Z</time>
      </trkpt>
      <trkpt lat="46.3189" lon="-0.78458">
        <ele>2.2000000476837</ele>
        <time>2015-02-16T09:47:14.000Z</time>
      </trkpt>
      <trkpt lat="46.31887" lon="-0.78437">
        <ele>2.4000000953674</ele>
        <time>2015-02-16T09:47:24.000Z</time>
      </trkpt>
      <trkpt lat="46.31885" lon="-0.78416">
        <ele>2.5999999046326</ele>
        <time>2015-02-16T09:47:34.000Z</time>
      </trkpt>
      <trkpt lat="46.31882" lon="-0.78394">
        <ele>3</ele>
        <time>2015-02-16T09:47:44.000Z</time>
      </trkpt>
      <trkpt lat="46.31881" lon="-0.78379">
        <ele>3.4000000953674</ele>
        <time>2015-02-16T09:47:51.000Z</time>
      </trkpt>
      <trkpt lat="46.31881" lon="-0.78363">
        <ele>3.7999999523163</ele>
        <time>2015-02-16T09:47:57.000Z</time>
      </trkpt>
      <trkpt lat="46.3188" lon="-0.78341">
        <ele>4.4000000953674</ele>
        <time>2015-02-16T09:48:08.000Z</time>
      </trkpt>
      <trkpt lat="46.3188" lon="-0.7832">
        <ele>4.8000001907349</ele>
        <time>2015-02-16T09:48:17.000Z</time>
      </trkpt>
      <trkpt lat="46.31879" lon="-0.78303">
        <ele>4.8000001907349</ele>
        <time>2015-02-16T09:48:24.000Z</time>
      </trkpt>
      <trkpt lat="46.31878" lon="-0.78297">
        <ele>4.8000001907349</ele>
        <time>2015-02-16T09:48:27.000Z</time>
      </trkpt>
      <trkpt lat="46.31877" lon="-0.78273">
        <ele>4.8000001907349</ele>
        <time>2015-02-16T09:48:37.000Z</time>
      </trkpt>
      <trkpt lat="46.3187" lon="-0.78231">
        <ele>4.4000000953674</ele>
        <time>2015-02-16T09:48:56.000Z</time>
      </trkpt>
      <trkpt lat="46.31868" lon="-0.78218">
        <ele>4.1999998092651</ele>
        <time>2015-02-16T09:49:02.000Z</time>
      </trkpt>
      <trkpt lat="46.31866" lon="-0.78201">
        <ele>4</ele>
        <time>2015-02-16T09:49:10.000Z</time>
      </trkpt>
      <trkpt lat="46.31861" lon="-0.78179">
        <ele>3.5999999046326</ele>
        <time>2015-02-16T09:49:20.000Z</time>
      </trkpt>
      <trkpt lat="46.31857" lon="-0.78161">
        <ele>3.5999999046326</ele>
        <time>2015-02-16T09:49:27.000Z</time>
      </trkpt>
      <trkpt lat="46.31853" lon="-0.78144">
        <ele>3.4000000953674</ele>
        <time>2015-02-16T09:49:35.000Z</time>
      </trkpt>
      <trkpt lat="46.31848" lon="-0.78124">
        <ele>3.5999999046326</ele>
        <time>2015-02-16T09:49:45.000Z</time>
      </trkpt>
      <trkpt lat="46.31843" lon="-0.78104">
        <ele>3.7999999523163</ele>
        <time>2015-02-16T09:49:54.000Z</time>
      </trkpt>
      <trkpt lat="46.31837" lon="-0.7808">
        <ele>3.5999999046326</ele>
        <time>2015-02-16T09:50:05.000Z</time>
      </trkpt>
      <trkpt lat="46.31832" lon="-0.78056">
        <ele>3.4000000953674</ele>
        <time>2015-02-16T09:50:16.000Z</time>
      </trkpt>
      <trkpt lat="46.31828" lon="-0.78035">
        <ele>3.2000000476837</ele>
        <time>2015-02-16T09:50:26.000Z</time>
      </trkpt>
      <trkpt lat="46.31824" lon="-0.78015">
        <ele>2.7999999523163</ele>
        <time>2015-02-16T09:50:35.000Z</time>
      </trkpt>
      <trkpt lat="46.3182" lon="-0.77991">
        <ele>2.4000000953674</ele>
        <time>2015-02-16T09:50:48.000Z</time>
      </trkpt>
      <trkpt lat="46.31818" lon="-0.77975">
        <ele>2.2000000476837</ele>
        <time>2015-02-16T09:50:56.000Z</time>
      </trkpt>
      <trkpt lat="46.31814" lon="-0.77956">
        <ele>2</ele>
        <time>2015-02-16T09:51:06.000Z</time>
      </trkpt>
      <trkpt lat="46.31808" lon="-0.77934">
        <ele>2</ele>
        <time>2015-02-16T09:51:17.000Z</time>
      </trkpt>
      <trkpt lat="46.31805" lon="-0.7792">
        <ele>2</ele>
        <time>2015-02-16T09:51:25.000Z</time>
      </trkpt>
      <trkpt lat="46.31801" lon="-0.77905">
        <ele>2</ele>
        <time>2015-02-16T09:51:33.000Z</time>
      </trkpt>
      <trkpt lat="46.31796" lon="-0.77884">
        <ele>2.2000000476837</ele>
        <time>2015-02-16T09:51:44.000Z</time>
      </trkpt>
      <trkpt lat="46.31791" lon="-0.77865">
        <ele>2.5999999046326</ele>
        <time>2015-02-16T09:51:54.000Z</time>
      </trkpt>
      <trkpt lat="46.31787" lon="-0.7785">
        <ele>2.7999999523163</ele>
        <time>2015-02-16T09:52:02.000Z</time>
      </trkpt>
      <trkpt lat="46.31782" lon="-0.7783">
        <ele>3</ele>
        <time>2015-02-16T09:52:13.000Z</time>
      </trkpt>
      <trkpt lat="46.31777" lon="-0.77808">
        <ele>3</ele>
        <time>2015-02-16T09:52:24.000Z</time>
      </trkpt>
      <trkpt lat="46.31773" lon="-0.77791">
        <ele>3</ele>
        <time>2015-02-16T09:52:33.000Z</time>
      </trkpt>
      <trkpt lat="46.31768" lon="-0.77772">
        <ele>3</ele>
        <time>2015-02-16T09:52:43.000Z</time>
      </trkpt>
      <trkpt lat="46.31763" lon="-0.77756">
        <ele>3</ele>
        <time>2015-02-16T09:52:52.000Z</time>
      </trkpt>
      <trkpt lat="46.31757" lon="-0.7774">
        <ele>3</ele>
        <time>2015-02-16T09:53:01.000Z</time>
      </trkpt>
      <trkpt lat="46.31751" lon="-0.77726">
        <ele>3</ele>
        <time>2015-02-16T09:53:09.000Z</time>
      </trkpt>
      <trkpt lat="46.3174" lon="-0.7771">
        <ele>3</ele>
        <time>2015-02-16T09:53:21.000Z</time>
      </trkpt>
      <trkpt lat="46.31733" lon="-0.777">
        <ele>3</ele>
        <time>2015-02-16T09:53:28.000Z</time>
      </trkpt>
      <trkpt lat="46.31723" lon="-0.77687">
        <ele>3</ele>
        <time>2015-02-16T09:53:37.000Z</time>
      </trkpt>
      <trkpt lat="46.31713" lon="-0.77673">
        <ele>3</ele>
        <time>2015-02-16T09:53:47.000Z</time>
      </trkpt>
      <trkpt lat="46.31705" lon="-0.77662">
        <ele>3</ele>
        <time>2015-02-16T09:53:55.000Z</time>
      </trkpt>
      <trkpt lat="46.31693" lon="-0.77646">
        <ele>3.4000000953674</ele>
        <time>2015-02-16T09:54:06.000Z</time>
      </trkpt>
      <trkpt lat="46.31683" lon="-0.77632">
        <ele>3.5999999046326</ele>
        <time>2015-02-16T09:54:16.000Z</time>
      </trkpt>
      <trkpt lat="46.3167" lon="-0.77612">
        <ele>3.7999999523163</ele>
        <time>2015-02-16T09:54:30.000Z</time>
      </trkpt>
      <trkpt lat="46.3166" lon="-0.77598">
        <ele>4.1999998092651</ele>
        <time>2015-02-16T09:54:40.000Z</time>
      </trkpt>
      <trkpt lat="46.31649" lon="-0.77581">
        <ele>4.5999999046326</ele>
        <time>2015-02-16T09:54:52.000Z</time>
      </trkpt>
      <trkpt lat="46.31637" lon="-0.77563">
        <ele>4.8000001907349</ele>
        <time>2015-02-16T09:55:04.000Z</time>
      </trkpt>
      <trkpt lat="46.31624" lon="-0.77545">
        <ele>4</ele>
        <time>2015-02-16T09:55:16.000Z</time>
      </trkpt>
      <trkpt lat="46.31612" lon="-0.77527">
        <ele>3.4000000953674</ele>
        <time>2015-02-16T09:55:28.000Z</time>
      </trkpt>
      <trkpt lat="46.31601" lon="-0.77512">
        <ele>3</ele>
        <time>2015-02-16T09:55:38.000Z</time>
      </trkpt>
      <trkpt lat="46.31589" lon="-0.77494">
        <ele>2.5999999046326</ele>
        <time>2015-02-16T09:55:50.000Z</time>
      </trkpt>
      <trkpt lat="46.31581" lon="-0.77484">
        <ele>2.4000000953674</ele>
        <time>2015-02-16T09:55:57.000Z</time>
      </trkpt>
      <trkpt lat="46.31573" lon="-0.77474">
        <ele>2.2000000476837</ele>
        <time>2015-02-16T09:56:05.000Z</time>
      </trkpt>
      <trkpt lat="46.31565" lon="-0.77463">
        <ele>2</ele>
        <time>2015-02-16T09:56:13.000Z</time>
      </trkpt>
      <trkpt lat="46.31558" lon="-0.77452">
        <ele>2.4000000953674</ele>
        <time>2015-02-16T09:56:21.000Z</time>
      </trkpt>
      <trkpt lat="46.31547" lon="-0.77437">
        <ele>2.7999999523163</ele>
        <time>2015-02-16T09:56:31.000Z</time>
      </trkpt>
      <trkpt lat="46.31538" lon="-0.77424">
        <ele>3.2000000476837</ele>
        <time>2015-02-16T09:56:40.000Z</time>
      </trkpt>
      <trkpt lat="46.31529" lon="-0.7741">
        <ele>3.5999999046326</ele>
        <time>2015-02-16T09:56:49.000Z</time>
      </trkpt>
      <trkpt lat="46.31519" lon="-0.77397">
        <ele>4</ele>
        <time>2015-02-16T09:56:58.000Z</time>
      </trkpt>
      <trkpt lat="46.31509" lon="-0.77382">
        <ele>4.4000000953674</ele>
        <time>2015-02-16T09:57:08.000Z</time>
      </trkpt>
      <trkpt lat="46.31497" lon="-0.77365">
        <ele>4.5999999046326</ele>
        <time>2015-02-16T09:57:20.000Z</time>
      </trkpt>
      <trkpt lat="46.31492" lon="-0.77355">
        <ele>4.8000001907349</ele>
        <time>2015-02-16T09:57:27.000Z</time>
      </trkpt>
      <trkpt lat="46.31485" lon="-0.77344">
        <ele>4.8000001907349</ele>
        <time>2015-02-16T09:57:34.000Z</time>
      </trkpt>
      <trkpt lat="46.31485" lon="-0.77343">
        <ele>4.8000001907349</ele>
        <time>2015-02-16T09:57:35.000Z</time>
      </trkpt>
      <trkpt lat="46.31475" lon="-0.77328">
        <ele>5</ele>
        <time>2015-02-16T09:57:45.000Z</time>
      </trkpt>
      <trkpt lat="46.31463" lon="-0.77311">
        <ele>4.5999999046326</ele>
        <time>2015-02-16T09:57:56.000Z</time>
      </trkpt>
      <trkpt lat="46.31453" lon="-0.773">
        <ele>4.1999998092651</ele>
        <time>2015-02-16T09:58:04.000Z</time>
      </trkpt>
      <trkpt lat="46.31443" lon="-0.77287">
        <ele>3.5999999046326</ele>
        <time>2015-02-16T09:58:13.000Z</time>
      </trkpt>
      <trkpt lat="46.31427" lon="-0.77279">
        <ele>3.2000000476837</ele>
        <time>2015-02-16T09:58:24.000Z</time>
      </trkpt>
      <trkpt lat="46.31412" lon="-0.77283">
        <ele>3</ele>
        <time>2015-02-16T09:58:35.000Z</time>
      </trkpt>
      <trkpt lat="46.31395" lon="-0.77289">
        <ele>3.2000000476837</ele>
        <time>2015-02-16T09:58:47.000Z</time>
      </trkpt>
      <trkpt lat="46.31382" lon="-0.77292">
        <ele>3.2000000476837</ele>
        <time>2015-02-16T09:58:56.000Z</time>
      </trkpt>
      <trkpt lat="46.31366" lon="-0.77287">
        <ele>3.2000000476837</ele>
        <time>2015-02-16T09:59:07.000Z</time>
      </trkpt>
      <trkpt lat="46.31356" lon="-0.77273">
        <ele>3.4000000953674</ele>
        <time>2015-02-16T09:59:17.000Z</time>
      </trkpt>
      <trkpt lat="46.31352" lon="-0.77258">
        <ele>3.4000000953674</ele>
        <time>2015-02-16T09:59:25.000Z</time>
      </trkpt>
      <trkpt lat="46.31348" lon="-0.7724">
        <ele>3.4000000953674</ele>
        <time>2015-02-16T09:59:34.000Z</time>
      </trkpt>
      <trkpt lat="46.31345" lon="-0.77223">
        <ele>3.4000000953674</ele>
        <time>2015-02-16T09:59:43.000Z</time>
      </trkpt>
      <trkpt lat="46.31342" lon="-0.77205">
        <ele>3.4000000953674</ele>
        <time>2015-02-16T09:59:52.000Z</time>
      </trkpt>
      <trkpt lat="46.31338" lon="-0.77189">
        <ele>3.4000000953674</ele>
        <time>2015-02-16T10:00:00.000Z</time>
      </trkpt>
      <trkpt lat="46.31336" lon="-0.77175">
        <ele>3.5999999046326</ele>
        <time>2015-02-16T10:00:07.000Z</time>
      </trkpt>
      <trkpt lat="46.31332" lon="-0.77153">
        <ele>3.7999999523163</ele>
        <time>2015-02-16T10:00:18.000Z</time>
      </trkpt>
      <trkpt lat="46.31328" lon="-0.77131">
        <ele>4</ele>
        <time>2015-02-16T10:00:29.000Z</time>
      </trkpt>
      <trkpt lat="46.31322" lon="-0.77117">
        <ele>3.7999999523163</ele>
        <time>2015-02-16T10:00:37.000Z</time>
      </trkpt>
      <trkpt lat="46.31316" lon="-0.77106">
        <ele>3.5999999046326</ele>
        <time>2015-02-16T10:00:43.000Z</time>
      </trkpt>
      <trkpt lat="46.31305" lon="-0.77091">
        <ele>3.2000000476837</ele>
        <time>2015-02-16T10:00:54.000Z</time>
      </trkpt>
      <trkpt lat="46.31295" lon="-0.77076">
        <ele>2.7999999523163</ele>
        <time>2015-02-16T10:01:04.000Z</time>
      </trkpt>
      <trkpt lat="46.31283" lon="-0.77059">
        <ele>3</ele>
        <time>2015-02-16T10:01:16.000Z</time>
      </trkpt>
      <trkpt lat="46.31272" lon="-0.77043">
        <ele>3.2000000476837</ele>
        <time>2015-02-16T10:01:28.000Z</time>
      </trkpt>
      <trkpt lat="46.31262" lon="-0.77029">
        <ele>3.4000000953674</ele>
        <time>2015-02-16T10:01:38.000Z</time>
      </trkpt>
      <trkpt lat="46.31251" lon="-0.77014">
        <ele>3.4000000953674</ele>
        <time>2015-02-16T10:01:48.000Z</time>
      </trkpt>
      <trkpt lat="46.31239" lon="-0.76996">
        <ele>3.7999999523163</ele>
        <time>2015-02-16T10:02:01.000Z</time>
      </trkpt>
      <trkpt lat="46.31227" lon="-0.76979">
        <ele>3.7999999523163</ele>
        <time>2015-02-16T10:02:13.000Z</time>
      </trkpt>
      <trkpt lat="46.3122" lon="-0.76967">
        <ele>4</ele>
        <time>2015-02-16T10:02:21.000Z</time>
      </trkpt>
      <trkpt lat="46.31212" lon="-0.76956">
        <ele>3.7999999523163</ele>
        <time>2015-02-16T10:02:29.000Z</time>
      </trkpt>
      <trkpt lat="46.31203" lon="-0.76943">
        <ele>3.5999999046326</ele>
        <time>2015-02-16T10:02:38.000Z</time>
      </trkpt>
      <trkpt lat="46.31192" lon="-0.76928">
        <ele>3.4000000953674</ele>
        <time>2015-02-16T10:02:49.000Z</time>
      </trkpt>
      <trkpt lat="46.31182" lon="-0.76915">
        <ele>4</ele>
        <time>2015-02-16T10:02:58.000Z</time>
      </trkpt>
      <trkpt lat="46.31175" lon="-0.76904">
        <ele>4.5999999046326</ele>
        <time>2015-02-16T10:03:05.000Z</time>
      </trkpt>
      <trkpt lat="46.31167" lon="-0.76893">
        <ele>5.1999998092651</ele>
        <time>2015-02-16T10:03:13.000Z</time>
      </trkpt>
      <trkpt lat="46.31159" lon="-0.76882">
        <ele>5.5999999046326</ele>
        <time>2015-02-16T10:03:21.000Z</time>
      </trkpt>
      <trkpt lat="46.3115" lon="-0.76871">
        <ele>6</ele>
        <time>2015-02-16T10:03:29.000Z</time>
      </trkpt>
      <trkpt lat="46.31142" lon="-0.76858">
        <ele>6</ele>
        <time>2015-02-16T10:03:38.000Z</time>
      </trkpt>
      <trkpt lat="46.31134" lon="-0.76846">
        <ele>5.8000001907349</ele>
        <time>2015-02-16T10:03:47.000Z</time>
      </trkpt>
      <trkpt lat="46.31124" lon="-0.76833">
        <ele>5.8000001907349</ele>
        <time>2015-02-16T10:03:56.000Z</time>
      </trkpt>
      <trkpt lat="46.31117" lon="-0.76823">
        <ele>5.4000000953674</ele>
        <time>2015-02-16T10:04:03.000Z</time>
      </trkpt>
      <trkpt lat="46.31109" lon="-0.76809">
        <ele>4.8000001907349</ele>
        <time>2015-02-16T10:04:12.000Z</time>
      </trkpt>
      <trkpt lat="46.31098" lon="-0.76793">
        <ele>3.7999999523163</ele>
        <time>2015-02-16T10:04:23.000Z</time>
      </trkpt>
      <trkpt lat="46.31087" lon="-0.76779">
        <ele>3</ele>
        <time>2015-02-16T10:04:34.000Z</time>
      </trkpt>
      <trkpt lat="46.31076" lon="-0.76763">
        <ele>3</ele>
        <time>2015-02-16T10:04:45.000Z</time>
      </trkpt>
      <trkpt lat="46.31067" lon="-0.76749">
        <ele>3</ele>
        <time>2015-02-16T10:04:55.000Z</time>
      </trkpt>
      <trkpt lat="46.3106" lon="-0.76738">
        <ele>3</ele>
        <time>2015-02-16T10:05:03.000Z</time>
      </trkpt>
      <trkpt lat="46.31053" lon="-0.76728">
        <ele>3</ele>
        <time>2015-02-16T10:05:10.000Z</time>
      </trkpt>
      <trkpt lat="46.31043" lon="-0.76715">
        <ele>2.7999999523163</ele>
        <time>2015-02-16T10:05:20.000Z</time>
      </trkpt>
      <trkpt lat="46.31035" lon="-0.76702">
        <ele>2.7999999523163</ele>
        <time>2015-02-16T10:05:29.000Z</time>
      </trkpt>
      <trkpt lat="46.31028" lon="-0.76691">
        <ele>3</ele>
        <time>2015-02-16T10:05:37.000Z</time>
      </trkpt>
      <trkpt lat="46.31015" lon="-0.76672">
        <ele>2.7999999523163</ele>
        <time>2015-02-16T10:05:50.000Z</time>
      </trkpt>
      <trkpt lat="46.31006" lon="-0.7666">
        <ele>2.5999999046326</ele>
        <time>2015-02-16T10:05:59.000Z</time>
      </trkpt>
      <trkpt lat="46.30998" lon="-0.76648">
        <ele>2.4000000953674</ele>
        <time>2015-02-16T10:06:07.000Z</time>
      </trkpt>
      <trkpt lat="46.3099" lon="-0.76636">
        <ele>2.2000000476837</ele>
        <time>2015-02-16T10:06:16.000Z</time>
      </trkpt>
      <trkpt lat="46.30979" lon="-0.7662">
        <ele>2.2000000476837</ele>
        <time>2015-02-16T10:06:27.000Z</time>
      </trkpt>
      <trkpt lat="46.30972" lon="-0.76609">
        <ele>2.4000000953674</ele>
        <time>2015-02-16T10:06:35.000Z</time>
      </trkpt>
      <trkpt lat="46.30964" lon="-0.76597">
        <ele>2.4000000953674</ele>
        <time>2015-02-16T10:06:44.000Z</time>
      </trkpt>
      <trkpt lat="46.30954" lon="-0.76583">
        <ele>2.5999999046326</ele>
        <time>2015-02-16T10:06:54.000Z</time>
      </trkpt>
      <trkpt lat="46.30944" lon="-0.76569">
        <ele>2.5999999046326</ele>
        <time>2015-02-16T10:07:05.000Z</time>
      </trkpt>
      <trkpt lat="46.30934" lon="-0.76554">
        <ele>2.4000000953674</ele>
        <time>2015-02-16T10:07:16.000Z</time>
      </trkpt>
      <trkpt lat="46.30925" lon="-0.76541">
        <ele>2.4000000953674</ele>
        <time>2015-02-16T10:07:25.000Z</time>
      </trkpt>
      <trkpt lat="46.30915" lon="-0.76527">
        <ele>2.4000000953674</ele>
        <time>2015-02-16T10:07:36.000Z</time>
      </trkpt>
      <trkpt lat="46.30905" lon="-0.76514">
        <ele>2.4000000953674</ele>
        <time>2015-02-16T10:07:45.000Z</time>
      </trkpt>
      <trkpt lat="46.30897" lon="-0.76503">
        <ele>2.5999999046326</ele>
        <time>2015-02-16T10:07:53.000Z</time>
      </trkpt>
      <trkpt lat="46.30891" lon="-0.76494">
        <ele>2.7999999523163</ele>
        <time>2015-02-16T10:08:00.000Z</time>
      </trkpt>
      <trkpt lat="46.30885" lon="-0.76484">
        <ele>3</ele>
        <time>2015-02-16T10:08:07.000Z</time>
      </trkpt>
      <trkpt lat="46.30876" lon="-0.76473">
        <ele>3.2000000476837</ele>
        <time>2015-02-16T10:08:16.000Z</time>
      </trkpt>
      <trkpt lat="46.30867" lon="-0.7646">
        <ele>3.4000000953674</ele>
        <time>2015-02-16T10:08:25.000Z</time>
      </trkpt>
      <trkpt lat="46.30856" lon="-0.76445">
        <ele>3.4000000953674</ele>
        <time>2015-02-16T10:08:36.000Z</time>
      </trkpt>
      <trkpt lat="46.30846" lon="-0.7643">
        <ele>3.5999999046326</ele>
        <time>2015-02-16T10:08:47.000Z</time>
      </trkpt>
      <trkpt lat="46.30837" lon="-0.76418">
        <ele>3.7999999523163</ele>
        <time>2015-02-16T10:08:56.000Z</time>
      </trkpt>
      <trkpt lat="46.30829" lon="-0.76407">
        <ele>3.7999999523163</ele>
        <time>2015-02-16T10:09:04.000Z</time>
      </trkpt>
      <trkpt lat="46.30822" lon="-0.76397">
        <ele>3.7999999523163</ele>
        <time>2015-02-16T10:09:11.000Z</time>
      </trkpt>
      <trkpt lat="46.30814" lon="-0.76386">
        <ele>4</ele>
        <time>2015-02-16T10:09:19.000Z</time>
      </trkpt>
      <trkpt lat="46.30808" lon="-0.76377">
        <ele>3.7999999523163</ele>
        <time>2015-02-16T10:09:26.000Z</time>
      </trkpt>
      <trkpt lat="46.308" lon="-0.76365">
        <ele>3.4000000953674</ele>
        <time>2015-02-16T10:09:34.000Z</time>
      </trkpt>
      <trkpt lat="46.30791" lon="-0.76352">
        <ele>3.2000000476837</ele>
        <time>2015-02-16T10:09:44.000Z</time>
      </trkpt>
      <trkpt lat="46.30781" lon="-0.76338">
        <ele>2.7999999523163</ele>
        <time>2015-02-16T10:09:53.000Z</time>
      </trkpt>
      <trkpt lat="46.30774" lon="-0.76329">
        <ele>2.5999999046326</ele>
        <time>2015-02-16T10:10:00.000Z</time>
      </trkpt>
      <trkpt lat="46.30764" lon="-0.76314">
        <ele>2.2000000476837</ele>
        <time>2015-02-16T10:10:10.000Z</time>
      </trkpt>
      <trkpt lat="46.30757" lon="-0.76304">
        <ele>2</ele>
        <time>2015-02-16T10:10:18.000Z</time>
      </trkpt>
      <trkpt lat="46.30747" lon="-0.7629">
        <ele>2.4000000953674</ele>
        <time>2015-02-16T10:10:27.000Z</time>
      </trkpt>
      <trkpt lat="46.30738" lon="-0.76278">
        <ele>2.4000000953674</ele>
        <time>2015-02-16T10:10:36.000Z</time>
      </trkpt>
      <trkpt lat="46.3073" lon="-0.76267">
        <ele>2.4000000953674</ele>
        <time>2015-02-16T10:10:43.000Z</time>
      </trkpt>
      <trkpt lat="46.30721" lon="-0.76254">
        <ele>2.5999999046326</ele>
        <time>2015-02-16T10:10:52.000Z</time>
      </trkpt>
      <trkpt lat="46.30712" lon="-0.76242">
        <ele>2.7999999523163</ele>
        <time>2015-02-16T10:11:00.000Z</time>
      </trkpt>
      <trkpt lat="46.30704" lon="-0.76229">
        <ele>2.4000000953674</ele>
        <time>2015-02-16T10:11:09.000Z</time>
      </trkpt>
      <trkpt lat="46.30696" lon="-0.76216">
        <ele>2.2000000476837</ele>
        <time>2015-02-16T10:11:18.000Z</time>
      </trkpt>
      <trkpt lat="46.30683" lon="-0.76196">
        <ele>1.7999999523163</ele>
        <time>2015-02-16T10:11:32.000Z</time>
      </trkpt>
      <trkpt lat="46.30669" lon="-0.76178">
        <ele>1.7999999523163</ele>
        <time>2015-02-16T10:11:45.000Z</time>
      </trkpt>
      <trkpt lat="46.30655" lon="-0.76174">
        <ele>1.6000000238419</ele>
        <time>2015-02-16T10:11:55.000Z</time>
      </trkpt>
      <trkpt lat="46.30643" lon="-0.76176">
        <ele>1.6000000238419</ele>
        <time>2015-02-16T10:12:04.000Z</time>
      </trkpt>
      <trkpt lat="46.30634" lon="-0.76181">
        <ele>2</ele>
        <time>2015-02-16T10:12:11.000Z</time>
      </trkpt>
      <trkpt lat="46.30623" lon="-0.76186">
        <ele>2.2000000476837</ele>
        <time>2015-02-16T10:12:20.000Z</time>
      </trkpt>
      <trkpt lat="46.30614" lon="-0.76188">
        <ele>2.5999999046326</ele>
        <time>2015-02-16T10:12:27.000Z</time>
      </trkpt>
      <trkpt lat="46.30599" lon="-0.76193">
        <ele>3</ele>
        <time>2015-02-16T10:12:38.000Z</time>
      </trkpt>
      <trkpt lat="46.30587" lon="-0.76196">
        <ele>3.4000000953674</ele>
        <time>2015-02-16T10:12:48.000Z</time>
      </trkpt>
      <trkpt lat="46.30576" lon="-0.76201">
        <ele>3.7999999523163</ele>
        <time>2015-02-16T10:12:57.000Z</time>
      </trkpt>
      <trkpt lat="46.30564" lon="-0.76204">
        <ele>4.1999998092651</ele>
        <time>2015-02-16T10:13:06.000Z</time>
      </trkpt>
      <trkpt lat="46.30555" lon="-0.76207">
        <ele>4</ele>
        <time>2015-02-16T10:13:13.000Z</time>
      </trkpt>
      <trkpt lat="46.30542" lon="-0.7621">
        <ele>3.5999999046326</ele>
        <time>2015-02-16T10:13:22.000Z</time>
      </trkpt>
      <trkpt lat="46.30524" lon="-0.76213">
        <ele>3.2000000476837</ele>
        <time>2015-02-16T10:13:35.000Z</time>
      </trkpt>
      <trkpt lat="46.30512" lon="-0.76215">
        <ele>2.7999999523163</ele>
        <time>2015-02-16T10:13:44.000Z</time>
      </trkpt>
      <trkpt lat="46.30501" lon="-0.76218">
        <ele>2.5999999046326</ele>
        <time>2015-02-16T10:13:51.000Z</time>
      </trkpt>
      <trkpt lat="46.30488" lon="-0.7622">
        <ele>2.2000000476837</ele>
        <time>2015-02-16T10:14:00.000Z</time>
      </trkpt>
      <trkpt lat="46.30477" lon="-0.76222">
        <ele>2</ele>
        <time>2015-02-16T10:14:09.000Z</time>
      </trkpt>
      <trkpt lat="46.30464" lon="-0.76223">
        <ele>2.2000000476837</ele>
        <time>2015-02-16T10:14:18.000Z</time>
      </trkpt>
      <trkpt lat="46.30452" lon="-0.76224">
        <ele>2.4000000953674</ele>
        <time>2015-02-16T10:14:27.000Z</time>
      </trkpt>
      <trkpt lat="46.3044" lon="-0.76226">
        <ele>2.4000000953674</ele>
        <time>2015-02-16T10:14:36.000Z</time>
      </trkpt>
      <trkpt lat="46.3043" lon="-0.76235">
        <ele>2.5999999046326</ele>
        <time>2015-02-16T10:14:44.000Z</time>
      </trkpt>
      <trkpt lat="46.30423" lon="-0.7625">
        <ele>2.5999999046326</ele>
        <time>2015-02-16T10:14:53.000Z</time>
      </trkpt>
      <trkpt lat="46.30418" lon="-0.76271">
        <ele>2.7999999523163</ele>
        <time>2015-02-16T10:15:04.000Z</time>
      </trkpt>
      <trkpt lat="46.3041" lon="-0.76293">
        <ele>2.7999999523163</ele>
        <time>2015-02-16T10:15:16.000Z</time>
      </trkpt>
      <trkpt lat="46.30401" lon="-0.76316">
        <ele>3</ele>
        <time>2015-02-16T10:15:29.000Z</time>
      </trkpt>
      <trkpt lat="46.30396" lon="-0.76334">
        <ele>3</ele>
        <time>2015-02-16T10:15:39.000Z</time>
      </trkpt>
      <trkpt lat="46.30394" lon="-0.76353">
        <ele>3</ele>
        <time>2015-02-16T10:15:49.000Z</time>
      </trkpt>
      <trkpt lat="46.30393" lon="-0.76369">
        <ele>3</ele>
        <time>2015-02-16T10:15:57.000Z</time>
      </trkpt>
      <trkpt lat="46.30394" lon="-0.76385">
        <ele>3</ele>
        <time>2015-02-16T10:16:05.000Z</time>
      </trkpt>
      <trkpt lat="46.30397" lon="-0.76412">
        <ele>3</ele>
        <time>2015-02-16T10:16:18.000Z</time>
      </trkpt>
      <trkpt lat="46.30399" lon="-0.76429">
        <ele>3</ele>
        <time>2015-02-16T10:16:27.000Z</time>
      </trkpt>
      <trkpt lat="46.30401" lon="-0.76448">
        <ele>3</ele>
        <time>2015-02-16T10:16:37.000Z</time>
      </trkpt>
      <trkpt lat="46.30404" lon="-0.76466">
        <ele>3</ele>
        <time>2015-02-16T10:16:47.000Z</time>
      </trkpt>
      <trkpt lat="46.30406" lon="-0.76482">
        <ele>3.2000000476837</ele>
        <time>2015-02-16T10:16:55.000Z</time>
      </trkpt>
      <trkpt lat="46.30406" lon="-0.76501">
        <ele>3.2000000476837</ele>
        <time>2015-02-16T10:17:05.000Z</time>
      </trkpt>
      <trkpt lat="46.30404" lon="-0.76514">
        <ele>3</ele>
        <time>2015-02-16T10:17:12.000Z</time>
      </trkpt>
      <trkpt lat="46.30396" lon="-0.76529">
        <ele>3</ele>
        <time>2015-02-16T10:17:22.000Z</time>
      </trkpt>
      <trkpt lat="46.30388" lon="-0.76542">
        <ele>3.2000000476837</ele>
        <time>2015-02-16T10:17:31.000Z</time>
      </trkpt>
      <trkpt lat="46.30378" lon="-0.76555">
        <ele>3.2000000476837</ele>
        <time>2015-02-16T10:17:41.000Z</time>
      </trkpt>
      <trkpt lat="46.30369" lon="-0.76566">
        <ele>3.4000000953674</ele>
        <time>2015-02-16T10:17:50.000Z</time>
      </trkpt>
      <trkpt lat="46.30361" lon="-0.76576">
        <ele>3.4000000953674</ele>
        <time>2015-02-16T10:17:58.000Z</time>
      </trkpt>
      <trkpt lat="46.30354" lon="-0.76589">
        <ele>3.5999999046326</ele>
        <time>2015-02-16T10:18:07.000Z</time>
      </trkpt>
      <trkpt lat="46.30351" lon="-0.76605">
        <ele>3.5999999046326</ele>
        <time>2015-02-16T10:18:16.000Z</time>
      </trkpt>
      <trkpt lat="46.30354" lon="-0.7662">
        <ele>3.7999999523163</ele>
        <time>2015-02-16T10:18:24.000Z</time>
      </trkpt>
      <trkpt lat="46.30358" lon="-0.76635">
        <ele>4</ele>
        <time>2015-02-16T10:18:32.000Z</time>
      </trkpt>
      <trkpt lat="46.30361" lon="-0.76651">
        <ele>3.7999999523163</ele>
        <time>2015-02-16T10:18:40.000Z</time>
      </trkpt>
      <trkpt lat="46.30365" lon="-0.76669">
        <ele>3.5999999046326</ele>
        <time>2015-02-16T10:18:49.000Z</time>
      </trkpt>
      <trkpt lat="46.30369" lon="-0.76687">
        <ele>3.4000000953674</ele>
        <time>2015-02-16T10:18:58.000Z</time>
      </trkpt>
      <trkpt lat="46.30372" lon="-0.76701">
        <ele>3.2000000476837</ele>
        <time>2015-02-16T10:19:05.000Z</time>
      </trkpt>
      <trkpt lat="46.30377" lon="-0.76715">
        <ele>3</ele>
        <time>2015-02-16T10:19:13.000Z</time>
      </trkpt>
      <trkpt lat="46.30379" lon="-0.76732">
        <ele>3.2000000476837</ele>
        <time>2015-02-16T10:19:22.000Z</time>
      </trkpt>
      <trkpt lat="46.30375" lon="-0.76746">
        <ele>3.2000000476837</ele>
        <time>2015-02-16T10:19:29.000Z</time>
      </trkpt>
      <trkpt lat="46.30364" lon="-0.76754">
        <ele>3.4000000953674</ele>
        <time>2015-02-16T10:19:38.000Z</time>
      </trkpt>
      <trkpt lat="46.30356" lon="-0.76761">
        <ele>3.4000000953674</ele>
        <time>2015-02-16T10:19:48.000Z</time>
      </trkpt>
      <trkpt lat="46.30353" lon="-0.76766">
        <ele>3.5999999046326</ele>
        <time>2015-02-16T10:20:03.000Z</time>
      </trkpt>
      <trkpt lat="46.30355" lon="-0.76772">
        <ele>3.5999999046326</ele>
        <time>2015-02-16T10:20:51.000Z</time>
      </trkpt>
      <trkpt lat="46.30357" lon="-0.76785">
        <ele>3.4000000953674</ele>
        <time>2015-02-16T10:20:59.000Z</time>
      </trkpt>
      <trkpt lat="46.3036" lon="-0.768">
        <ele>3.4000000953674</ele>
        <time>2015-02-16T10:21:08.000Z</time>
      </trkpt>
      <trkpt lat="46.30362" lon="-0.76813">
        <ele>3.4000000953674</ele>
        <time>2015-02-16T10:21:17.000Z</time>
      </trkpt>
      <trkpt lat="46.3036" lon="-0.7683">
        <ele>3.4000000953674</ele>
        <time>2015-02-16T10:21:27.000Z</time>
      </trkpt>
      <trkpt lat="46.30359" lon="-0.76848">
        <ele>3.5999999046326</ele>
        <time>2015-02-16T10:21:37.000Z</time>
      </trkpt>
      <trkpt lat="46.3036" lon="-0.76868">
        <ele>3.7999999523163</ele>
        <time>2015-02-16T10:21:48.000Z</time>
      </trkpt>
      <trkpt lat="46.30365" lon="-0.76881">
        <ele>4</ele>
        <time>2015-02-16T10:21:57.000Z</time>
      </trkpt>
      <trkpt lat="46.30368" lon="-0.76893">
        <ele>4</ele>
        <time>2015-02-16T10:22:04.000Z</time>
      </trkpt>
      <trkpt lat="46.3037" lon="-0.76904">
        <ele>3.7999999523163</ele>
        <time>2015-02-16T10:22:10.000Z</time>
      </trkpt>
      <trkpt lat="46.30371" lon="-0.76907">
        <ele>3.7999999523163</ele>
        <time>2015-02-16T10:22:12.000Z</time>
      </trkpt>
      <trkpt lat="46.30373" lon="-0.7692">
        <ele>3.7999999523163</ele>
        <time>2015-02-16T10:22:20.000Z</time>
      </trkpt>
      <trkpt lat="46.30376" lon="-0.76933">
        <ele>3.7999999523163</ele>
        <time>2015-02-16T10:22:27.000Z</time>
      </trkpt>
      <trkpt lat="46.30379" lon="-0.76945">
        <ele>3.7999999523163</ele>
        <time>2015-02-16T10:22:34.000Z</time>
      </trkpt>
      <trkpt lat="46.3038" lon="-0.76958">
        <ele>3.7999999523163</ele>
        <time>2015-02-16T10:22:42.000Z</time>
      </trkpt>
      <trkpt lat="46.30381" lon="-0.76971">
        <ele>3.7999999523163</ele>
        <time>2015-02-16T10:22:49.000Z</time>
      </trkpt>
      <trkpt lat="46.3038" lon="-0.7699">
        <ele>3.7999999523163</ele>
        <time>2015-02-16T10:22:59.000Z</time>
      </trkpt>
      <trkpt lat="46.30381" lon="-0.77009">
        <ele>3.7999999523163</ele>
        <time>2015-02-16T10:23:08.000Z</time>
      </trkpt>
      <trkpt lat="46.30383" lon="-0.77026">
        <ele>3.7999999523163</ele>
        <time>2015-02-16T10:23:17.000Z</time>
      </trkpt>
      <trkpt lat="46.30384" lon="-0.7704">
        <ele>3.7999999523163</ele>
        <time>2015-02-16T10:23:25.000Z</time>
      </trkpt>
      <trkpt lat="46.30385" lon="-0.77053">
        <ele>3.7999999523163</ele>
        <time>2015-02-16T10:23:32.000Z</time>
      </trkpt>
      <trkpt lat="46.30385" lon="-0.77067">
        <ele>3.7999999523163</ele>
        <time>2015-02-16T10:23:40.000Z</time>
      </trkpt>
      <trkpt lat="46.30385" lon="-0.77082">
        <ele>3.7999999523163</ele>
        <time>2015-02-16T10:23:48.000Z</time>
      </trkpt>
      <trkpt lat="46.30385" lon="-0.77083">
        <ele>3.7999999523163</ele>
        <time>2015-02-16T10:23:49.000Z</time>
      </trkpt>
      <trkpt lat="46.30386" lon="-0.77093">
        <ele>3.7999999523163</ele>
        <time>2015-02-16T10:23:55.000Z</time>
      </trkpt>
      <trkpt lat="46.30385" lon="-0.77104">
        <ele>3.7999999523163</ele>
        <time>2015-02-16T10:24:02.000Z</time>
      </trkpt>
      <trkpt lat="46.30385" lon="-0.77113">
        <ele>3.7999999523163</ele>
        <time>2015-02-16T10:24:07.000Z</time>
      </trkpt>
      <trkpt lat="46.30385" lon="-0.77128">
        <ele>3.7999999523163</ele>
        <time>2015-02-16T10:24:15.000Z</time>
      </trkpt>
      <trkpt lat="46.30386" lon="-0.77143">
        <ele>3.7999999523163</ele>
        <time>2015-02-16T10:24:23.000Z</time>
      </trkpt>
      <trkpt lat="46.30388" lon="-0.77159">
        <ele>3.7999999523163</ele>
        <time>2015-02-16T10:24:32.000Z</time>
      </trkpt>
      <trkpt lat="46.30388" lon="-0.77176">
        <ele>3.5999999046326</ele>
        <time>2015-02-16T10:24:42.000Z</time>
      </trkpt>
      <trkpt lat="46.30388" lon="-0.77188">
        <ele>3.4000000953674</ele>
        <time>2015-02-16T10:24:49.000Z</time>
      </trkpt>
      <trkpt lat="46.30388" lon="-0.77197">
        <ele>3.2000000476837</ele>
        <time>2015-02-16T10:24:53.000Z</time>
      </trkpt>
      <trkpt lat="46.30385" lon="-0.77207">
        <ele>3.2000000476837</ele>
        <time>2015-02-16T10:24:59.000Z</time>
      </trkpt>
      <trkpt lat="46.30384" lon="-0.77208">
        <ele>3.2000000476837</ele>
        <time>2015-02-16T10:25:00.000Z</time>
      </trkpt>
      <trkpt lat="46.30383" lon="-0.77222">
        <ele>3</ele>
        <time>2015-02-16T10:25:07.000Z</time>
      </trkpt>
      <trkpt lat="46.30383" lon="-0.77236">
        <ele>2.7999999523163</ele>
        <time>2015-02-16T10:25:14.000Z</time>
      </trkpt>
      <trkpt lat="46.30381" lon="-0.77248">
        <ele>3</ele>
        <time>2015-02-16T10:25:21.000Z</time>
      </trkpt>
      <trkpt lat="46.3038" lon="-0.77263">
        <ele>3.4000000953674</ele>
        <time>2015-02-16T10:25:29.000Z</time>
      </trkpt>
      <trkpt lat="46.3038" lon="-0.77282">
        <ele>3.7999999523163</ele>
        <time>2015-02-16T10:25:39.000Z</time>
      </trkpt>
      <trkpt lat="46.30379" lon="-0.77298">
        <ele>4.1999998092651</ele>
        <time>2015-02-16T10:25:47.000Z</time>
      </trkpt>
      <trkpt lat="46.30378" lon="-0.77313">
        <ele>4.4000000953674</ele>
        <time>2015-02-16T10:25:55.000Z</time>
      </trkpt>
      <trkpt lat="46.30376" lon="-0.77328">
        <ele>4.4000000953674</ele>
        <time>2015-02-16T10:26:03.000Z</time>
      </trkpt>
      <trkpt lat="46.30377" lon="-0.77343">
        <ele>4.4000000953674</ele>
        <time>2015-02-16T10:26:11.000Z</time>
      </trkpt>
      <trkpt lat="46.30377" lon="-0.77353">
        <ele>4.1999998092651</ele>
        <time>2015-02-16T10:26:17.000Z</time>
      </trkpt>
      <trkpt lat="46.30376" lon="-0.77359">
        <ele>4.1999998092651</ele>
        <time>2015-02-16T10:26:20.000Z</time>
      </trkpt>
      <trkpt lat="46.30373" lon="-0.77372">
        <ele>4</ele>
        <time>2015-02-16T10:26:28.000Z</time>
      </trkpt>
      <trkpt lat="46.30373" lon="-0.77377">
        <ele>3.7999999523163</ele>
        <time>2015-02-16T10:26:31.000Z</time>
      </trkpt>
      <trkpt lat="46.30368" lon="-0.77395">
        <ele>3.7999999523163</ele>
        <time>2015-02-16T10:26:41.000Z</time>
      </trkpt>
      <trkpt lat="46.30366" lon="-0.77404">
        <ele>3.7999999523163</ele>
        <time>2015-02-16T10:26:46.000Z</time>
      </trkpt>
      <trkpt lat="46.30363" lon="-0.77414">
        <ele>4</ele>
        <time>2015-02-16T10:26:53.000Z</time>
      </trkpt>
      <trkpt lat="46.3036" lon="-0.77422">
        <ele>4</ele>
        <time>2015-02-16T10:26:58.000Z</time>
      </trkpt>
      <trkpt lat="46.30357" lon="-0.77433">
        <ele>4.1999998092651</ele>
        <time>2015-02-16T10:27:05.000Z</time>
      </trkpt>
      <trkpt lat="46.30354" lon="-0.77446">
        <ele>4.4000000953674</ele>
        <time>2015-02-16T10:27:13.000Z</time>
      </trkpt>
      <trkpt lat="46.30348" lon="-0.77461">
        <ele>4.5999999046326</ele>
        <time>2015-02-16T10:27:22.000Z</time>
      </trkpt>
      <trkpt lat="46.30344" lon="-0.77469">
        <ele>4.5999999046326</ele>
        <time>2015-02-16T10:27:27.000Z</time>
      </trkpt>
      <trkpt lat="46.30339" lon="-0.7748">
        <ele>4.5999999046326</ele>
        <time>2015-02-16T10:27:33.000Z</time>
      </trkpt>
      <trkpt lat="46.30338" lon="-0.77481">
        <ele>4.4000000953674</ele>
        <time>2015-02-16T10:27:34.000Z</time>
      </trkpt>
      <trkpt lat="46.3033" lon="-0.775">
        <ele>4</ele>
        <time>2015-02-16T10:27:45.000Z</time>
      </trkpt>
      <trkpt lat="46.30324" lon="-0.77518">
        <ele>3.5999999046326</ele>
        <time>2015-02-16T10:27:55.000Z</time>
      </trkpt>
      <trkpt lat="46.30321" lon="-0.77529">
        <ele>3.4000000953674</ele>
        <time>2015-02-16T10:28:02.000Z</time>
      </trkpt>
      <trkpt lat="46.30316" lon="-0.77539">
        <ele>3.2000000476837</ele>
        <time>2015-02-16T10:28:08.000Z</time>
      </trkpt>
      <trkpt lat="46.30314" lon="-0.77546">
        <ele>3.2000000476837</ele>
        <time>2015-02-16T10:28:12.000Z</time>
      </trkpt>
      <trkpt lat="46.30307" lon="-0.77559">
        <ele>3</ele>
        <time>2015-02-16T10:28:20.000Z</time>
      </trkpt>
      <trkpt lat="46.30301" lon="-0.77571">
        <ele>3.2000000476837</ele>
        <time>2015-02-16T10:28:28.000Z</time>
      </trkpt>
      <trkpt lat="46.30294" lon="-0.77587">
        <ele>3.2000000476837</ele>
        <time>2015-02-16T10:28:38.000Z</time>
      </trkpt>
      <trkpt lat="46.30291" lon="-0.77597">
        <ele>3.2000000476837</ele>
        <time>2015-02-16T10:28:44.000Z</time>
      </trkpt>
      <trkpt lat="46.30286" lon="-0.77608">
        <ele>3.4000000953674</ele>
        <time>2015-02-16T10:28:52.000Z</time>
      </trkpt>
      <trkpt lat="46.30283" lon="-0.77616">
        <ele>3.4000000953674</ele>
        <time>2015-02-16T10:28:57.000Z</time>
      </trkpt>
      <trkpt lat="46.3028" lon="-0.77625">
        <ele>3.4000000953674</ele>
        <time>2015-02-16T10:29:03.000Z</time>
      </trkpt>
      <trkpt lat="46.30279" lon="-0.77626">
        <ele>3.4000000953674</ele>
        <time>2015-02-16T10:29:04.000Z</time>
      </trkpt>
      <trkpt lat="46.30278" lon="-0.7763">
        <ele>3.4000000953674</ele>
        <time>2015-02-16T10:29:06.000Z</time>
      </trkpt>
      <trkpt lat="46.30275" lon="-0.77636">
        <ele>3.4000000953674</ele>
        <time>2015-02-16T10:29:10.000Z</time>
      </trkpt>
      <trkpt lat="46.30268" lon="-0.77651">
        <ele>3.5999999046326</ele>
        <time>2015-02-16T10:29:18.000Z</time>
      </trkpt>
      <trkpt lat="46.30264" lon="-0.77661">
        <ele>3.7999999523163</ele>
        <time>2015-02-16T10:29:24.000Z</time>
      </trkpt>
      <trkpt lat="46.3026" lon="-0.77671">
        <ele>4</ele>
        <time>2015-02-16T10:29:30.000Z</time>
      </trkpt>
      <trkpt lat="46.30257" lon="-0.77677">
        <ele>4.1999998092651</ele>
        <time>2015-02-16T10:29:34.000Z</time>
      </trkpt>
      <trkpt lat="46.30251" lon="-0.77691">
        <ele>4.4000000953674</ele>
        <time>2015-02-16T10:29:42.000Z</time>
      </trkpt>
      <trkpt lat="46.30244" lon="-0.77705">
        <ele>4.5999999046326</ele>
        <time>2015-02-16T10:29:51.000Z</time>
      </trkpt>
      <trkpt lat="46.30239" lon="-0.77721">
        <ele>5</ele>
        <time>2015-02-16T10:30:00.000Z</time>
      </trkpt>
      <trkpt lat="46.30233" lon="-0.77737">
        <ele>4.8000001907349</ele>
        <time>2015-02-16T10:30:10.000Z</time>
      </trkpt>
      <trkpt lat="46.30229" lon="-0.77749">
        <ele>4.5999999046326</ele>
        <time>2015-02-16T10:30:17.000Z</time>
      </trkpt>
      <trkpt lat="46.30223" lon="-0.77763">
        <ele>4.5999999046326</ele>
        <time>2015-02-16T10:30:26.000Z</time>
      </trkpt>
      <trkpt lat="46.30216" lon="-0.77776">
        <ele>4.5999999046326</ele>
        <time>2015-02-16T10:30:35.000Z</time>
      </trkpt>
      <trkpt lat="46.30209" lon="-0.7779">
        <ele>4.4000000953674</ele>
        <time>2015-02-16T10:30:45.000Z</time>
      </trkpt>
      <trkpt lat="46.302" lon="-0.77803">
        <ele>4.4000000953674</ele>
        <time>2015-02-16T10:30:55.000Z</time>
      </trkpt>
      <trkpt lat="46.30195" lon="-0.77811">
        <ele>4.4000000953674</ele>
        <time>2015-02-16T10:31:01.000Z</time>
      </trkpt>
      <trkpt lat="46.30188" lon="-0.77822">
        <ele>4.8000001907349</ele>
        <time>2015-02-16T10:31:09.000Z</time>
      </trkpt>
      <trkpt lat="46.30181" lon="-0.77834">
        <ele>5</ele>
        <time>2015-02-16T10:31:17.000Z</time>
      </trkpt>
      <trkpt lat="46.30173" lon="-0.77846">
        <ele>5.1999998092651</ele>
        <time>2015-02-16T10:31:26.000Z</time>
      </trkpt>
      <trkpt lat="46.30165" lon="-0.77861">
        <ele>5.4000000953674</ele>
        <time>2015-02-16T10:31:35.000Z</time>
      </trkpt>
      <trkpt lat="46.30156" lon="-0.77876">
        <ele>5.8000001907349</ele>
        <time>2015-02-16T10:31:45.000Z</time>
      </trkpt>
      <trkpt lat="46.30147" lon="-0.77891">
        <ele>6</ele>
        <time>2015-02-16T10:31:55.000Z</time>
      </trkpt>
      <trkpt lat="46.30138" lon="-0.77904">
        <ele>5.8000001907349</ele>
        <time>2015-02-16T10:32:04.000Z</time>
      </trkpt>
      <trkpt lat="46.30131" lon="-0.77916">
        <ele>5.8000001907349</ele>
        <time>2015-02-16T10:32:12.000Z</time>
      </trkpt>
      <trkpt lat="46.30131" lon="-0.77917">
        <ele>5.8000001907349</ele>
        <time>2015-02-16T10:32:13.000Z</time>
      </trkpt>
      <trkpt lat="46.30123" lon="-0.77928">
        <ele>5.5999999046326</ele>
        <time>2015-02-16T10:32:21.000Z</time>
      </trkpt>
      <trkpt lat="46.30115" lon="-0.77939">
        <ele>5.4000000953674</ele>
        <time>2015-02-16T10:32:29.000Z</time>
      </trkpt>
      <trkpt lat="46.30108" lon="-0.77951">
        <ele>5.4000000953674</ele>
        <time>2015-02-16T10:32:37.000Z</time>
      </trkpt>
      <trkpt lat="46.301" lon="-0.77963">
        <ele>5.1999998092651</ele>
        <time>2015-02-16T10:32:46.000Z</time>
      </trkpt>
      <trkpt lat="46.30093" lon="-0.77975">
        <ele>5</ele>
        <time>2015-02-16T10:32:54.000Z</time>
      </trkpt>
      <trkpt lat="46.30084" lon="-0.77991">
        <ele>4.1999998092651</ele>
        <time>2015-02-16T10:33:04.000Z</time>
      </trkpt>
      <trkpt lat="46.30077" lon="-0.7801">
        <ele>3.5999999046326</ele>
        <time>2015-02-16T10:33:16.000Z</time>
      </trkpt>
      <trkpt lat="46.30079" lon="-0.78021">
        <ele>3.4000000953674</ele>
        <time>2015-02-16T10:33:37.000Z</time>
      </trkpt>
      <trkpt lat="46.30082" lon="-0.78028">
        <ele>3.4000000953674</ele>
        <time>2015-02-16T10:33:42.000Z</time>
      </trkpt>
      <trkpt lat="46.30091" lon="-0.78042">
        <ele>3.4000000953674</ele>
        <time>2015-02-16T10:33:52.000Z</time>
      </trkpt>
      <trkpt lat="46.30101" lon="-0.78055">
        <ele>3.7999999523163</ele>
        <time>2015-02-16T10:34:02.000Z</time>
      </trkpt>
      <trkpt lat="46.30112" lon="-0.78069">
        <ele>4.4000000953674</ele>
        <time>2015-02-16T10:34:13.000Z</time>
      </trkpt>
      <trkpt lat="46.30118" lon="-0.78074">
        <ele>4.5999999046326</ele>
        <time>2015-02-16T10:34:19.000Z</time>
      </trkpt>
      <trkpt lat="46.30127" lon="-0.78084">
        <ele>4.8000001907349</ele>
        <time>2015-02-16T10:34:28.000Z</time>
      </trkpt>
      <trkpt lat="46.30139" lon="-0.78094">
        <ele>4.4000000953674</ele>
        <time>2015-02-16T10:34:39.000Z</time>
      </trkpt>
      <trkpt lat="46.30149" lon="-0.78104">
        <ele>4.1999998092651</ele>
        <time>2015-02-16T10:34:49.000Z</time>
      </trkpt>
      <trkpt lat="46.30158" lon="-0.78112">
        <ele>3.5999999046326</ele>
        <time>2015-02-16T10:34:58.000Z</time>
      </trkpt>
      <trkpt lat="46.30166" lon="-0.7812">
        <ele>3.2000000476837</ele>
        <time>2015-02-16T10:35:06.000Z</time>
      </trkpt>
      <trkpt lat="46.30174" lon="-0.78126">
        <ele>3.4000000953674</ele>
        <time>2015-02-16T10:35:14.000Z</time>
      </trkpt>
      <trkpt lat="46.30184" lon="-0.78137">
        <ele>3.4000000953674</ele>
        <time>2015-02-16T10:35:24.000Z</time>
      </trkpt>
      <trkpt lat="46.30194" lon="-0.78145">
        <ele>3.4000000953674</ele>
        <time>2015-02-16T10:35:33.000Z</time>
      </trkpt>
      <trkpt lat="46.3021" lon="-0.78157">
        <ele>3.5999999046326</ele>
        <time>2015-02-16T10:35:51.000Z</time>
      </trkpt>
      <trkpt lat="46.30218" lon="-0.78163">
        <ele>3.2000000476837</ele>
        <time>2015-02-16T10:35:59.000Z</time>
      </trkpt>
      <trkpt lat="46.30223" lon="-0.78167">
        <ele>3</ele>
        <time>2015-02-16T10:36:04.000Z</time>
      </trkpt>
      <trkpt lat="46.30228" lon="-0.78171">
        <ele>2.7999999523163</ele>
        <time>2015-02-16T10:36:09.000Z</time>
      </trkpt>
      <trkpt lat="46.3024" lon="-0.78179">
        <ele>2.4000000953674</ele>
        <time>2015-02-16T10:36:20.000Z</time>
      </trkpt>
      <trkpt lat="46.30249" lon="-0.78186">
        <ele>2</ele>
        <time>2015-02-16T10:36:28.000Z</time>
      </trkpt>
      <trkpt lat="46.30256" lon="-0.78191">
        <ele>1.7999999523163</ele>
        <time>2015-02-16T10:36:35.000Z</time>
      </trkpt>
      <trkpt lat="46.30265" lon="-0.78198">
        <ele>1.6000000238419</ele>
        <time>2015-02-16T10:36:44.000Z</time>
      </trkpt>
      <trkpt lat="46.30275" lon="-0.78205">
        <ele>1.7999999523163</ele>
        <time>2015-02-16T10:36:52.000Z</time>
      </trkpt>
      <trkpt lat="46.30285" lon="-0.78213">
        <ele>1.7999999523163</ele>
        <time>2015-02-16T10:37:01.000Z</time>
      </trkpt>
      <trkpt lat="46.30295" lon="-0.7822">
        <ele>1.7999999523163</ele>
        <time>2015-02-16T10:37:09.000Z</time>
      </trkpt>
      <trkpt lat="46.30302" lon="-0.78225">
        <ele>2</ele>
        <time>2015-02-16T10:37:15.000Z</time>
      </trkpt>
      <trkpt lat="46.30311" lon="-0.78232">
        <ele>2</ele>
        <time>2015-02-16T10:37:23.000Z</time>
      </trkpt>
      <trkpt lat="46.30321" lon="-0.7824">
        <ele>2.2000000476837</ele>
        <time>2015-02-16T10:37:32.000Z</time>
      </trkpt>
      <trkpt lat="46.30333" lon="-0.78248">
        <ele>2.4000000953674</ele>
        <time>2015-02-16T10:37:42.000Z</time>
      </trkpt>
      <trkpt lat="46.30346" lon="-0.78255">
        <ele>2.7999999523163</ele>
        <time>2015-02-16T10:37:52.000Z</time>
      </trkpt>
      <trkpt lat="46.30352" lon="-0.78259">
        <ele>3</ele>
        <time>2015-02-16T10:37:58.000Z</time>
      </trkpt>
      <trkpt lat="46.30359" lon="-0.78263">
        <ele>3</ele>
        <time>2015-02-16T10:38:04.000Z</time>
      </trkpt>
      <trkpt lat="46.30369" lon="-0.78269">
        <ele>2.7999999523163</ele>
        <time>2015-02-16T10:38:13.000Z</time>
      </trkpt>
      <trkpt lat="46.30378" lon="-0.78273">
        <ele>2.7999999523163</ele>
        <time>2015-02-16T10:38:21.000Z</time>
      </trkpt>
      <trkpt lat="46.30389" lon="-0.78279">
        <ele>2.5999999046326</ele>
        <time>2015-02-16T10:38:31.000Z</time>
      </trkpt>
      <trkpt lat="46.304" lon="-0.78285">
        <ele>2.4000000953674</ele>
        <time>2015-02-16T10:38:41.000Z</time>
      </trkpt>
      <trkpt lat="46.30401" lon="-0.78286">
        <ele>2.4000000953674</ele>
        <time>2015-02-16T10:38:42.000Z</time>
      </trkpt>
      <trkpt lat="46.30409" lon="-0.78291">
        <ele>2.2000000476837</ele>
        <time>2015-02-16T10:38:50.000Z</time>
      </trkpt>
      <trkpt lat="46.3041" lon="-0.78292">
        <ele>2.2000000476837</ele>
        <time>2015-02-16T10:38:51.000Z</time>
      </trkpt>
      <trkpt lat="46.30416" lon="-0.78293">
        <ele>2.2000000476837</ele>
        <time>2015-02-16T10:38:57.000Z</time>
      </trkpt>
      <trkpt lat="46.30423" lon="-0.78297">
        <ele>2</ele>
        <time>2015-02-16T10:39:04.000Z</time>
      </trkpt>
      <trkpt lat="46.30432" lon="-0.783">
        <ele>2</ele>
        <time>2015-02-16T10:39:12.000Z</time>
      </trkpt>
      <trkpt lat="46.30443" lon="-0.78303">
        <ele>2</ele>
        <time>2015-02-16T10:39:21.000Z</time>
      </trkpt>
      <trkpt lat="46.30454" lon="-0.78302">
        <ele>2</ele>
        <time>2015-02-16T10:39:30.000Z</time>
      </trkpt>
      <trkpt lat="46.30474" lon="-0.78299">
        <ele>2</ele>
        <time>2015-02-16T10:39:47.000Z</time>
      </trkpt>
      <trkpt lat="46.30484" lon="-0.78298">
        <ele>2.2000000476837</ele>
        <time>2015-02-16T10:39:56.000Z</time>
      </trkpt>
      <trkpt lat="46.30494" lon="-0.78297">
        <ele>2.2000000476837</ele>
        <time>2015-02-16T10:40:04.000Z</time>
      </trkpt>
      <trkpt lat="46.30507" lon="-0.78296">
        <ele>2.2000000476837</ele>
        <time>2015-02-16T10:40:14.000Z</time>
      </trkpt>
      <trkpt lat="46.30517" lon="-0.78295">
        <ele>2.2000000476837</ele>
        <time>2015-02-16T10:40:22.000Z</time>
      </trkpt>
      <trkpt lat="46.30529" lon="-0.78294">
        <ele>2.2000000476837</ele>
        <time>2015-02-16T10:40:32.000Z</time>
      </trkpt>
      <trkpt lat="46.30544" lon="-0.78293">
        <ele>2.2000000476837</ele>
        <time>2015-02-16T10:40:44.000Z</time>
      </trkpt>
      <trkpt lat="46.30551" lon="-0.78293">
        <ele>2.2000000476837</ele>
        <time>2015-02-16T10:40:51.000Z</time>
      </trkpt>
      <trkpt lat="46.30559" lon="-0.78293">
        <ele>2.2000000476837</ele>
        <time>2015-02-16T10:40:58.000Z</time>
      </trkpt>
      <trkpt lat="46.30565" lon="-0.78295">
        <ele>2.2000000476837</ele>
        <time>2015-02-16T10:41:06.000Z</time>
      </trkpt>
      <trkpt lat="46.3057" lon="-0.78294">
        <ele>2.2000000476837</ele>
        <time>2015-02-16T10:41:11.000Z</time>
      </trkpt>
      <trkpt lat="46.30581" lon="-0.78291">
        <ele>2</ele>
        <time>2015-02-16T10:41:19.000Z</time>
      </trkpt>
      <trkpt lat="46.30589" lon="-0.78289">
        <ele>2</ele>
        <time>2015-02-16T10:41:25.000Z</time>
      </trkpt>
      <trkpt lat="46.30598" lon="-0.78287">
        <ele>2</ele>
        <time>2015-02-16T10:41:32.000Z</time>
      </trkpt>
      <trkpt lat="46.30605" lon="-0.78283">
        <ele>2</ele>
        <time>2015-02-16T10:41:39.000Z</time>
      </trkpt>
      <trkpt lat="46.30607" lon="-0.78282">
        <ele>2</ele>
        <time>2015-02-16T10:41:40.000Z</time>
      </trkpt>
      <trkpt lat="46.30615" lon="-0.78278">
        <ele>2</ele>
        <time>2015-02-16T10:41:47.000Z</time>
      </trkpt>
      <trkpt lat="46.30624" lon="-0.78275">
        <ele>2</ele>
        <time>2015-02-16T10:41:54.000Z</time>
      </trkpt>
      <trkpt lat="46.30625" lon="-0.78274">
        <ele>2</ele>
        <time>2015-02-16T10:41:55.000Z</time>
      </trkpt>
      <trkpt lat="46.30631" lon="-0.78273">
        <ele>2</ele>
        <time>2015-02-16T10:41:59.000Z</time>
      </trkpt>
      <trkpt lat="46.30645" lon="-0.78271">
        <ele>2</ele>
        <time>2015-02-16T10:42:09.000Z</time>
      </trkpt>
      <trkpt lat="46.30656" lon="-0.78267">
        <ele>1.7999999523163</ele>
        <time>2015-02-16T10:42:17.000Z</time>
      </trkpt>
      <trkpt lat="46.30665" lon="-0.78264">
        <ele>1.7999999523163</ele>
        <time>2015-02-16T10:42:24.000Z</time>
      </trkpt>
      <trkpt lat="46.30678" lon="-0.78261">
        <ele>1.6000000238419</ele>
        <time>2015-02-16T10:42:33.000Z</time>
      </trkpt>
      <trkpt lat="46.30686" lon="-0.78258">
        <ele>1.6000000238419</ele>
        <time>2015-02-16T10:42:39.000Z</time>
      </trkpt>
      <trkpt lat="46.3069" lon="-0.78257">
        <ele>1.3999999761581</ele>
        <time>2015-02-16T10:42:43.000Z</time>
      </trkpt>
      <trkpt lat="46.30695" lon="-0.78257">
        <ele>1.3999999761581</ele>
        <time>2015-02-16T10:42:53.000Z</time>
      </trkpt>
      <trkpt lat="46.30699" lon="-0.78259">
        <ele>1.3999999761581</ele>
        <time>2015-02-16T10:43:07.000Z</time>
      </trkpt>
      <trkpt lat="46.307" lon="-0.78246">
        <ele>1.3999999761581</ele>
        <time>2015-02-16T10:43:52.000Z</time>
      </trkpt>
      <trkpt lat="46.30707" lon="-0.78239">
        <ele>1.2000000476837</ele>
        <time>2015-02-16T10:44:00.000Z</time>
      </trkpt>
      <trkpt lat="46.30713" lon="-0.78235">
        <ele>1.2000000476837</ele>
        <time>2015-02-16T10:44:06.000Z</time>
      </trkpt>
      <trkpt lat="46.30721" lon="-0.7823">
        <ele>1.2000000476837</ele>
        <time>2015-02-16T10:44:13.000Z</time>
      </trkpt>
      <trkpt lat="46.3073" lon="-0.78221">
        <ele>1</ele>
        <time>2015-02-16T10:44:22.000Z</time>
      </trkpt>
      <trkpt lat="46.3074" lon="-0.78213">
        <ele>1.2000000476837</ele>
        <time>2015-02-16T10:44:30.000Z</time>
      </trkpt>
      <trkpt lat="46.3075" lon="-0.78204">
        <ele>1.2000000476837</ele>
        <time>2015-02-16T10:44:39.000Z</time>
      </trkpt>
      <trkpt lat="46.30758" lon="-0.78196">
        <ele>1.3999999761581</ele>
        <time>2015-02-16T10:44:47.000Z</time>
      </trkpt>
      <trkpt lat="46.30762" lon="-0.78193">
        <ele>1.3999999761581</ele>
        <time>2015-02-16T10:44:50.000Z</time>
      </trkpt>
      <trkpt lat="46.30769" lon="-0.78183">
        <ele>1.3999999761581</ele>
        <time>2015-02-16T10:44:58.000Z</time>
      </trkpt>
      <trkpt lat="46.3077" lon="-0.78182">
        <ele>1.3999999761581</ele>
        <time>2015-02-16T10:44:59.000Z</time>
      </trkpt>
      <trkpt lat="46.30773" lon="-0.78178">
        <ele>1.6000000238419</ele>
        <time>2015-02-16T10:45:02.000Z</time>
      </trkpt>
      <trkpt lat="46.30778" lon="-0.78172">
        <ele>1.6000000238419</ele>
        <time>2015-02-16T10:45:08.000Z</time>
      </trkpt>
      <trkpt lat="46.30786" lon="-0.78165">
        <ele>1.6000000238419</ele>
        <time>2015-02-16T10:45:15.000Z</time>
      </trkpt>
      <trkpt lat="46.30792" lon="-0.78158">
        <ele>1.7999999523163</ele>
        <time>2015-02-16T10:45:20.000Z</time>
      </trkpt>
      <trkpt lat="46.30802" lon="-0.78147">
        <ele>2</ele>
        <time>2015-02-16T10:45:29.000Z</time>
      </trkpt>
      <trkpt lat="46.30809" lon="-0.7814">
        <ele>2</ele>
        <time>2015-02-16T10:45:35.000Z</time>
      </trkpt>
      <trkpt lat="46.30818" lon="-0.78133">
        <ele>2.2000000476837</ele>
        <time>2015-02-16T10:45:43.000Z</time>
      </trkpt>
      <trkpt lat="46.30829" lon="-0.78123">
        <ele>2.4000000953674</ele>
        <time>2015-02-16T10:45:52.000Z</time>
      </trkpt>
      <trkpt lat="46.30838" lon="-0.78117">
        <ele>2.5999999046326</ele>
        <time>2015-02-16T10:46:00.000Z</time>
      </trkpt>
      <trkpt lat="46.30839" lon="-0.78116">
        <ele>2.5999999046326</ele>
        <time>2015-02-16T10:46:01.000Z</time>
      </trkpt>
      <trkpt lat="46.30845" lon="-0.78115">
        <ele>2.5999999046326</ele>
        <time>2015-02-16T10:46:06.000Z</time>
      </trkpt>
      <trkpt lat="46.30854" lon="-0.78113">
        <ele>2.7999999523163</ele>
        <time>2015-02-16T10:46:12.000Z</time>
      </trkpt>
      <trkpt lat="46.30864" lon="-0.78109">
        <ele>3</ele>
        <time>2015-02-16T10:46:20.000Z</time>
      </trkpt>
      <trkpt lat="46.30874" lon="-0.78107">
        <ele>3.2000000476837</ele>
        <time>2015-02-16T10:46:28.000Z</time>
      </trkpt>
      <trkpt lat="46.30886" lon="-0.78103">
        <ele>3.2000000476837</ele>
        <time>2015-02-16T10:46:38.000Z</time>
      </trkpt>
      <trkpt lat="46.30897" lon="-0.78102">
        <ele>3.4000000953674</ele>
        <time>2015-02-16T10:46:46.000Z</time>
      </trkpt>
      <trkpt lat="46.30906" lon="-0.78103">
        <ele>3.4000000953674</ele>
        <time>2015-02-16T10:46:53.000Z</time>
      </trkpt>
      <trkpt lat="46.30915" lon="-0.78104">
        <ele>3.2000000476837</ele>
        <time>2015-02-16T10:47:00.000Z</time>
      </trkpt>
      <trkpt lat="46.30926" lon="-0.78106">
        <ele>3</ele>
        <time>2015-02-16T10:47:07.000Z</time>
      </trkpt>
      <trkpt lat="46.30937" lon="-0.78107">
        <ele>3.2000000476837</ele>
        <time>2015-02-16T10:47:16.000Z</time>
      </trkpt>
      <trkpt lat="46.30944" lon="-0.78109">
        <ele>3.2000000476837</ele>
        <time>2015-02-16T10:47:22.000Z</time>
      </trkpt>
      <trkpt lat="46.30954" lon="-0.7811">
        <ele>3.4000000953674</ele>
        <time>2015-02-16T10:47:30.000Z</time>
      </trkpt>
      <trkpt lat="46.30967" lon="-0.78111">
        <ele>3.5999999046326</ele>
        <time>2015-02-16T10:47:40.000Z</time>
      </trkpt>
      <trkpt lat="46.30977" lon="-0.78114">
        <ele>3.5999999046326</ele>
        <time>2015-02-16T10:47:48.000Z</time>
      </trkpt>
      <trkpt lat="46.30986" lon="-0.78118">
        <ele>3.7999999523163</ele>
        <time>2015-02-16T10:47:54.000Z</time>
      </trkpt>
      <trkpt lat="46.30995" lon="-0.78129">
        <ele>4</ele>
        <time>2015-02-16T10:48:02.000Z</time>
      </trkpt>
      <trkpt lat="46.31008" lon="-0.78146">
        <ele>3.7999999523163</ele>
        <time>2015-02-16T10:48:14.000Z</time>
      </trkpt>
      <trkpt lat="46.31019" lon="-0.78159">
        <ele>3.7999999523163</ele>
        <time>2015-02-16T10:48:24.000Z</time>
      </trkpt>
      <trkpt lat="46.31028" lon="-0.78168">
        <ele>3.7999999523163</ele>
        <time>2015-02-16T10:48:31.000Z</time>
      </trkpt>
      <trkpt lat="46.31039" lon="-0.78182">
        <ele>3.7999999523163</ele>
        <time>2015-02-16T10:48:42.000Z</time>
      </trkpt>
      <trkpt lat="46.31051" lon="-0.7819">
        <ele>3.7999999523163</ele>
        <time>2015-02-16T10:48:51.000Z</time>
      </trkpt>
      <trkpt lat="46.31061" lon="-0.78195">
        <ele>3.7999999523163</ele>
        <time>2015-02-16T10:48:59.000Z</time>
      </trkpt>
      <trkpt lat="46.31075" lon="-0.78201">
        <ele>4</ele>
        <time>2015-02-16T10:49:10.000Z</time>
      </trkpt>
      <trkpt lat="46.31083" lon="-0.78204">
        <ele>4.1999998092651</ele>
        <time>2015-02-16T10:49:17.000Z</time>
      </trkpt>
      <trkpt lat="46.31092" lon="-0.78209">
        <ele>4.1999998092651</ele>
        <time>2015-02-16T10:49:25.000Z</time>
      </trkpt>
      <trkpt lat="46.31099" lon="-0.78211">
        <ele>4.1999998092651</ele>
        <time>2015-02-16T10:49:31.000Z</time>
      </trkpt>
      <trkpt lat="46.311" lon="-0.78211">
        <ele>4.1999998092651</ele>
        <time>2015-02-16T10:49:32.000Z</time>
      </trkpt>
      <trkpt lat="46.31107" lon="-0.78215">
        <ele>4</ele>
        <time>2015-02-16T10:49:39.000Z</time>
      </trkpt>
      <trkpt lat="46.3112" lon="-0.78221">
        <ele>4</ele>
        <time>2015-02-16T10:49:50.000Z</time>
      </trkpt>
      <trkpt lat="46.31129" lon="-0.78228">
        <ele>4</ele>
        <time>2015-02-16T10:49:59.000Z</time>
      </trkpt>
      <trkpt lat="46.31137" lon="-0.78235">
        <ele>3.7999999523163</ele>
        <time>2015-02-16T10:50:07.000Z</time>
      </trkpt>
      <trkpt lat="46.31143" lon="-0.78241">
        <ele>4</ele>
        <time>2015-02-16T10:50:14.000Z</time>
      </trkpt>
      <trkpt lat="46.31152" lon="-0.78249">
        <ele>4.1999998092651</ele>
        <time>2015-02-16T10:50:23.000Z</time>
      </trkpt>
      <trkpt lat="46.31163" lon="-0.7826">
        <ele>4.4000000953674</ele>
        <time>2015-02-16T10:50:34.000Z</time>
      </trkpt>
      <trkpt lat="46.31171" lon="-0.78267">
        <ele>4.5999999046326</ele>
        <time>2015-02-16T10:50:42.000Z</time>
      </trkpt>
      <trkpt lat="46.31177" lon="-0.78273">
        <ele>4.8000001907349</ele>
        <time>2015-02-16T10:50:48.000Z</time>
      </trkpt>
      <trkpt lat="46.31184" lon="-0.78286">
        <ele>5.1999998092651</ele>
        <time>2015-02-16T10:50:56.000Z</time>
      </trkpt>
      <trkpt lat="46.31188" lon="-0.783">
        <ele>5.4000000953674</ele>
        <time>2015-02-16T10:51:04.000Z</time>
      </trkpt>
      <trkpt lat="46.31192" lon="-0.78313">
        <ele>5.4000000953674</ele>
        <time>2015-02-16T10:51:11.000Z</time>
      </trkpt>
      <trkpt lat="46.31198" lon="-0.78328">
        <ele>5.1999998092651</ele>
        <time>2015-02-16T10:51:19.000Z</time>
      </trkpt>
      <trkpt lat="46.31199" lon="-0.78329">
        <ele>5.1999998092651</ele>
        <time>2015-02-16T10:51:20.000Z</time>
      </trkpt>
      <trkpt lat="46.31203" lon="-0.78343">
        <ele>5.1999998092651</ele>
        <time>2015-02-16T10:51:28.000Z</time>
      </trkpt>
      <trkpt lat="46.31209" lon="-0.78361">
        <ele>5.4000000953674</ele>
        <time>2015-02-16T10:51:39.000Z</time>
      </trkpt>
      <trkpt lat="46.31215" lon="-0.78376">
        <ele>5.4000000953674</ele>
        <time>2015-02-16T10:51:48.000Z</time>
      </trkpt>
      <trkpt lat="46.3122" lon="-0.7839">
        <ele>5.5999999046326</ele>
        <time>2015-02-16T10:51:57.000Z</time>
      </trkpt>
      <trkpt lat="46.31224" lon="-0.78402">
        <ele>5.5999999046326</ele>
        <time>2015-02-16T10:52:05.000Z</time>
      </trkpt>
      <trkpt lat="46.3123" lon="-0.78416">
        <ele>5.4000000953674</ele>
        <time>2015-02-16T10:52:14.000Z</time>
      </trkpt>
      <trkpt lat="46.31236" lon="-0.78429">
        <ele>4.8000001907349</ele>
        <time>2015-02-16T10:52:22.000Z</time>
      </trkpt>
      <trkpt lat="46.31237" lon="-0.7843">
        <ele>4.8000001907349</ele>
        <time>2015-02-16T10:52:23.000Z</time>
      </trkpt>
      <trkpt lat="46.31243" lon="-0.78445">
        <ele>4.1999998092651</ele>
        <time>2015-02-16T10:52:32.000Z</time>
      </trkpt>
      <trkpt lat="46.31246" lon="-0.78462">
        <ele>3.7999999523163</ele>
        <time>2015-02-16T10:52:41.000Z</time>
      </trkpt>
      <trkpt lat="46.31244" lon="-0.78481">
        <ele>3.7999999523163</ele>
        <time>2015-02-16T10:52:51.000Z</time>
      </trkpt>
      <trkpt lat="46.3124" lon="-0.78501">
        <ele>3.5999999046326</ele>
        <time>2015-02-16T10:53:02.000Z</time>
      </trkpt>
      <trkpt lat="46.31237" lon="-0.78514">
        <ele>3.4000000953674</ele>
        <time>2015-02-16T10:53:10.000Z</time>
      </trkpt>
      <trkpt lat="46.31233" lon="-0.78532">
        <ele>3.2000000476837</ele>
        <time>2015-02-16T10:53:20.000Z</time>
      </trkpt>
      <trkpt lat="46.31231" lon="-0.78547">
        <ele>3</ele>
        <time>2015-02-16T10:53:29.000Z</time>
      </trkpt>
      <trkpt lat="46.31229" lon="-0.78567">
        <ele>3.2000000476837</ele>
        <time>2015-02-16T10:53:40.000Z</time>
      </trkpt>
      <trkpt lat="46.3123" lon="-0.78583">
        <ele>3.5999999046326</ele>
        <time>2015-02-16T10:53:48.000Z</time>
      </trkpt>
      <trkpt lat="46.31229" lon="-0.78603">
        <ele>4.1999998092651</ele>
        <time>2015-02-16T10:53:59.000Z</time>
      </trkpt>
      <trkpt lat="46.31226" lon="-0.78621">
        <ele>4.4000000953674</ele>
        <time>2015-02-16T10:54:09.000Z</time>
      </trkpt>
      <trkpt lat="46.31225" lon="-0.78636">
        <ele>4.8000001907349</ele>
        <time>2015-02-16T10:54:17.000Z</time>
      </trkpt>
      <trkpt lat="46.31223" lon="-0.7865">
        <ele>5.1999998092651</ele>
        <time>2015-02-16T10:54:25.000Z</time>
      </trkpt>
      <trkpt lat="46.31211" lon="-0.78694">
        <ele>5.5999999046326</ele>
        <time>2015-02-16T10:54:51.000Z</time>
      </trkpt>
      <trkpt lat="46.31206" lon="-0.78706">
        <ele>5.8000001907349</ele>
        <time>2015-02-16T10:54:58.000Z</time>
      </trkpt>
      <trkpt lat="46.31197" lon="-0.7872">
        <ele>6</ele>
        <time>2015-02-16T10:55:07.000Z</time>
      </trkpt>
      <trkpt lat="46.31188" lon="-0.78733">
        <ele>6.1999998092651</ele>
        <time>2015-02-16T10:55:16.000Z</time>
      </trkpt>
      <trkpt lat="46.31179" lon="-0.78744">
        <ele>6.5999999046326</ele>
        <time>2015-02-16T10:55:25.000Z</time>
      </trkpt>
      <trkpt lat="46.31171" lon="-0.78755">
        <ele>6.8000001907349</ele>
        <time>2015-02-16T10:55:34.000Z</time>
      </trkpt>
      <trkpt lat="46.31162" lon="-0.78765">
        <ele>7</ele>
        <time>2015-02-16T10:55:43.000Z</time>
      </trkpt>
      <trkpt lat="46.31153" lon="-0.78779">
        <ele>7.4000000953674</ele>
        <time>2015-02-16T10:55:53.000Z</time>
      </trkpt>
      <trkpt lat="46.31145" lon="-0.78793">
        <ele>7.5999999046326</ele>
        <time>2015-02-16T10:56:02.000Z</time>
      </trkpt>
      <trkpt lat="46.31137" lon="-0.78811">
        <ele>7.5999999046326</ele>
        <time>2015-02-16T10:56:14.000Z</time>
      </trkpt>
      <trkpt lat="46.31133" lon="-0.78819">
        <ele>7.4000000953674</ele>
        <time>2015-02-16T10:56:19.000Z</time>
      </trkpt>
      <trkpt lat="46.31126" lon="-0.78834">
        <ele>6.5999999046326</ele>
        <time>2015-02-16T10:56:29.000Z</time>
      </trkpt>
      <trkpt lat="46.31118" lon="-0.7885">
        <ele>5.8000001907349</ele>
        <time>2015-02-16T10:56:40.000Z</time>
      </trkpt>
      <trkpt lat="46.31111" lon="-0.78862">
        <ele>5.1999998092651</ele>
        <time>2015-02-16T10:56:48.000Z</time>
      </trkpt>
      <trkpt lat="46.31103" lon="-0.78875">
        <ele>4.5999999046326</ele>
        <time>2015-02-16T10:56:57.000Z</time>
      </trkpt>
      <trkpt lat="46.31097" lon="-0.78884">
        <ele>4.1999998092651</ele>
        <time>2015-02-16T10:57:04.000Z</time>
      </trkpt>
      <trkpt lat="46.31092" lon="-0.78895">
        <ele>4</ele>
        <time>2015-02-16T10:57:12.000Z</time>
      </trkpt>
      <trkpt lat="46.31091" lon="-0.78897">
        <ele>3.7999999523163</ele>
        <time>2015-02-16T10:57:13.000Z</time>
      </trkpt>
      <trkpt lat="46.31088" lon="-0.78901">
        <ele>3.7999999523163</ele>
        <time>2015-02-16T10:57:16.000Z</time>
      </trkpt>
      <trkpt lat="46.31077" lon="-0.78917">
        <ele>3.5999999046326</ele>
        <time>2015-02-16T10:57:28.000Z</time>
      </trkpt>
      <trkpt lat="46.31066" lon="-0.78932">
        <ele>3.4000000953674</ele>
        <time>2015-02-16T10:57:39.000Z</time>
      </trkpt>
      <trkpt lat="46.31059" lon="-0.7895">
        <ele>3.2000000476837</ele>
        <time>2015-02-16T10:57:50.000Z</time>
      </trkpt>
      <trkpt lat="46.31053" lon="-0.78965">
        <ele>3</ele>
        <time>2015-02-16T10:57:59.000Z</time>
      </trkpt>
      <trkpt lat="46.31047" lon="-0.78977">
        <ele>3</ele>
        <time>2015-02-16T10:58:07.000Z</time>
      </trkpt>
      <trkpt lat="46.31043" lon="-0.78992">
        <ele>3</ele>
        <time>2015-02-16T10:58:16.000Z</time>
      </trkpt>
      <trkpt lat="46.31041" lon="-0.79007">
        <ele>3.2000000476837</ele>
        <time>2015-02-16T10:58:24.000Z</time>
      </trkpt>
      <trkpt lat="46.31037" lon="-0.79044">
        <ele>3.5999999046326</ele>
        <time>2015-02-16T10:58:44.000Z</time>
      </trkpt>
      <trkpt lat="46.31037" lon="-0.79063">
        <ele>3.5999999046326</ele>
        <time>2015-02-16T10:58:54.000Z</time>
      </trkpt>
      <trkpt lat="46.31036" lon="-0.79077">
        <ele>3.5999999046326</ele>
        <time>2015-02-16T10:59:02.000Z</time>
      </trkpt>
      <trkpt lat="46.31034" lon="-0.79091">
        <ele>3.5999999046326</ele>
        <time>2015-02-16T10:59:10.000Z</time>
      </trkpt>
      <trkpt lat="46.31032" lon="-0.79105">
        <ele>3.4000000953674</ele>
        <time>2015-02-16T10:59:18.000Z</time>
      </trkpt>
      <trkpt lat="46.31029" lon="-0.79115">
        <ele>3.2000000476837</ele>
        <time>2015-02-16T10:59:24.000Z</time>
      </trkpt>
      <trkpt lat="46.31026" lon="-0.79129">
        <ele>3.2000000476837</ele>
        <time>2015-02-16T10:59:32.000Z</time>
      </trkpt>
      <trkpt lat="46.31022" lon="-0.79143">
        <ele>3</ele>
        <time>2015-02-16T10:59:40.000Z</time>
      </trkpt>
      <trkpt lat="46.31019" lon="-0.79159">
        <ele>2.7999999523163</ele>
        <time>2015-02-16T10:59:49.000Z</time>
      </trkpt>
      <trkpt lat="46.31017" lon="-0.79175">
        <ele>2.5999999046326</ele>
        <time>2015-02-16T10:59:58.000Z</time>
      </trkpt>
      <trkpt lat="46.31012" lon="-0.79193">
        <ele>2.4000000953674</ele>
        <time>2015-02-16T11:00:08.000Z</time>
      </trkpt>
      <trkpt lat="46.31007" lon="-0.7921">
        <ele>2.5999999046326</ele>
        <time>2015-02-16T11:00:18.000Z</time>
      </trkpt>
      <trkpt lat="46.31001" lon="-0.79228">
        <ele>3</ele>
        <time>2015-02-16T11:00:29.000Z</time>
      </trkpt>
      <trkpt lat="46.30995" lon="-0.79245">
        <ele>3.2000000476837</ele>
        <time>2015-02-16T11:00:39.000Z</time>
      </trkpt>
      <trkpt lat="46.30988" lon="-0.79266">
        <ele>3.4000000953674</ele>
        <time>2015-02-16T11:00:51.000Z</time>
      </trkpt>
      <trkpt lat="46.30982" lon="-0.79283">
        <ele>3.5999999046326</ele>
        <time>2015-02-16T11:01:01.000Z</time>
      </trkpt>
      <trkpt lat="46.30978" lon="-0.79296">
        <ele>3.7999999523163</ele>
        <time>2015-02-16T11:01:09.000Z</time>
      </trkpt>
      <trkpt lat="46.30973" lon="-0.79313">
        <ele>3.7999999523163</ele>
        <time>2015-02-16T11:01:19.000Z</time>
      </trkpt>
      <trkpt lat="46.30967" lon="-0.79331">
        <ele>3.5999999046326</ele>
        <time>2015-02-16T11:01:30.000Z</time>
      </trkpt>
      <trkpt lat="46.30962" lon="-0.79344">
        <ele>3.5999999046326</ele>
        <time>2015-02-16T11:01:38.000Z</time>
      </trkpt>
      <trkpt lat="46.30957" lon="-0.79359">
        <ele>3.4000000953674</ele>
        <time>2015-02-16T11:01:47.000Z</time>
      </trkpt>
      <trkpt lat="46.30953" lon="-0.79374">
        <ele>3.2000000476837</ele>
        <time>2015-02-16T11:01:56.000Z</time>
      </trkpt>
      <trkpt lat="46.3095" lon="-0.79393">
        <ele>3</ele>
        <time>2015-02-16T11:02:06.000Z</time>
      </trkpt>
      <trkpt lat="46.30949" lon="-0.79409">
        <ele>3</ele>
        <time>2015-02-16T11:02:14.000Z</time>
      </trkpt>
      <trkpt lat="46.30952" lon="-0.79425">
        <ele>3</ele>
        <time>2015-02-16T11:02:22.000Z</time>
      </trkpt>
      <trkpt lat="46.30956" lon="-0.79444">
        <ele>3.4000000953674</ele>
        <time>2015-02-16T11:02:32.000Z</time>
      </trkpt>
      <trkpt lat="46.30962" lon="-0.79463">
        <ele>3.5999999046326</ele>
        <time>2015-02-16T11:02:42.000Z</time>
      </trkpt>
      <trkpt lat="46.30966" lon="-0.79482">
        <ele>3.7999999523163</ele>
        <time>2015-02-16T11:02:52.000Z</time>
      </trkpt>
      <trkpt lat="46.30971" lon="-0.795">
        <ele>3.7999999523163</ele>
        <time>2015-02-16T11:03:02.000Z</time>
      </trkpt>
      <trkpt lat="46.30974" lon="-0.79513">
        <ele>4</ele>
        <time>2015-02-16T11:03:09.000Z</time>
      </trkpt>
      <trkpt lat="46.30979" lon="-0.79533">
        <ele>4</ele>
        <time>2015-02-16T11:03:19.000Z</time>
      </trkpt>
      <trkpt lat="46.30983" lon="-0.79549">
        <ele>4</ele>
        <time>2015-02-16T11:03:28.000Z</time>
      </trkpt>
      <trkpt lat="46.30986" lon="-0.7957">
        <ele>4</ele>
        <time>2015-02-16T11:03:39.000Z</time>
      </trkpt>
      <trkpt lat="46.30988" lon="-0.79582">
        <ele>4</ele>
        <time>2015-02-16T11:03:46.000Z</time>
      </trkpt>
      <trkpt lat="46.30992" lon="-0.79594">
        <ele>4.1999998092651</ele>
        <time>2015-02-16T11:03:53.000Z</time>
      </trkpt>
      <trkpt lat="46.30997" lon="-0.79615">
        <ele>4.1999998092651</ele>
        <time>2015-02-16T11:04:04.000Z</time>
      </trkpt>
      <trkpt lat="46.31002" lon="-0.79635">
        <ele>4</ele>
        <time>2015-02-16T11:04:15.000Z</time>
      </trkpt>
      <trkpt lat="46.31007" lon="-0.79652">
        <ele>4</ele>
        <time>2015-02-16T11:04:25.000Z</time>
      </trkpt>
      <trkpt lat="46.3101" lon="-0.7967">
        <ele>4</ele>
        <time>2015-02-16T11:04:34.000Z</time>
      </trkpt>
      <trkpt lat="46.31012" lon="-0.79685">
        <ele>4</ele>
        <time>2015-02-16T11:04:42.000Z</time>
      </trkpt>
      <trkpt lat="46.31016" lon="-0.79707">
        <ele>3.7999999523163</ele>
        <time>2015-02-16T11:04:53.000Z</time>
      </trkpt>
      <trkpt lat="46.31018" lon="-0.7972">
        <ele>3.5999999046326</ele>
        <time>2015-02-16T11:05:01.000Z</time>
      </trkpt>
      <trkpt lat="46.3102" lon="-0.79729">
        <ele>3.5999999046326</ele>
        <time>2015-02-16T11:05:07.000Z</time>
      </trkpt>
      <trkpt lat="46.31023" lon="-0.79744">
        <ele>3.4000000953674</ele>
        <time>2015-02-16T11:05:15.000Z</time>
      </trkpt>
      <trkpt lat="46.31025" lon="-0.79757">
        <ele>3.4000000953674</ele>
        <time>2015-02-16T11:05:22.000Z</time>
      </trkpt>
      <trkpt lat="46.31029" lon="-0.79775">
        <ele>3.5999999046326</ele>
        <time>2015-02-16T11:05:32.000Z</time>
      </trkpt>
      <trkpt lat="46.31033" lon="-0.79794">
        <ele>3.7999999523163</ele>
        <time>2015-02-16T11:05:42.000Z</time>
      </trkpt>
      <trkpt lat="46.31039" lon="-0.79815">
        <ele>4</ele>
        <time>2015-02-16T11:05:53.000Z</time>
      </trkpt>
      <trkpt lat="46.31047" lon="-0.79827">
        <ele>4</ele>
        <time>2015-02-16T11:06:01.000Z</time>
      </trkpt>
      <trkpt lat="46.31055" lon="-0.79838">
        <ele>3.7999999523163</ele>
        <time>2015-02-16T11:06:09.000Z</time>
      </trkpt>
      <trkpt lat="46.31058" lon="-0.79847">
        <ele>3.5999999046326</ele>
        <time>2015-02-16T11:06:15.000Z</time>
      </trkpt>
      <trkpt lat="46.31057" lon="-0.7985">
        <ele>3.5999999046326</ele>
        <time>2015-02-16T11:06:21.000Z</time>
      </trkpt>
      <trkpt lat="46.31057" lon="-0.79852">
        <ele>3.5999999046326</ele>
        <time>2015-02-16T11:06:25.000Z</time>
      </trkpt>
      <trkpt lat="46.31048" lon="-0.79864">
        <ele>3.4000000953674</ele>
        <time>2015-02-16T11:06:34.000Z</time>
      </trkpt>
      <trkpt lat="46.31039" lon="-0.79873">
        <ele>3.4000000953674</ele>
        <time>2015-02-16T11:06:42.000Z</time>
      </trkpt>
      <trkpt lat="46.31028" lon="-0.79871">
        <ele>3.5999999046326</ele>
        <time>2015-02-16T11:06:51.000Z</time>
      </trkpt>
      <trkpt lat="46.31022" lon="-0.7986">
        <ele>3.7999999523163</ele>
        <time>2015-02-16T11:06:58.000Z</time>
      </trkpt>
    </trkseg>
  </trk>
</gpx>